MENU

Calendar of Events

Submit Your Event

The Jive Slave Route Challenge 2015

01 May 2015
1330
10KM
OVERALLCATPOSSURNAMENAMECLUBAGEGENDERCATGENCATTIME
11 [404]BUTHELEZIPHILANIBOXER AC24MALESENMSEN0:31:33
22 [404]NTETAUNATHIAAC22MALESENMSEN0:31:38
33 [404]SOLDAKASIBONISOCPUT24MALESENMSEN0:32:18
41 [71]VAN DER MERWESAMUELBELLVILLE17MALEJUNMJUN0:32:29
52 [71]WAGNERHEINRICHCELTIC19MALEJUNMJUN0:32:32
64 [404]BATOLEXOLISAK-WAY VOB MALESENMSEN0:32:48
75 [404]LANGELWANDILEK-WAY VOB26MALESENMSEN0:33:05
86 [404]SHABALALAPHUMLANIUCT28MALESENMSEN0:33:22
91 [90]MWANENGENITSUNGAICAPE MULTISPORT41MALE40M400:33:28
101 [76]KOPOLOVAKALISEKHAYELITSHA38MALE35M350:33:40
112 [76]MSOPIVICTORNEDBANK WP35MALE35M350:33:44
127 [404]KATZENGRANWINCELTIC20MALESENMSEN0:33:47
138 [404]MAKILAAKHONAK-WAY VOB24MALESENMSEN0:33:51
143 [71]JANUARYRONALDOCELTIC15MALEJUNMJUN0:33:59
159 [404]MOURIESDEWAYNEITHEKO27MALESENMSEN0:34:12
1610 [404]MPEKULAMARKSK-WAY VOB MALESENMSEN0:34:24
1711 [404]BYMANDITHEKO21MALESENMSEN0:34:46
1812 [404]NO CARD RCS GUGS MALESENMSEN0:34:47
1913 [404]RUSHIKAADMIREK-WAY VOB29MALESENMSEN0:34:49
2014 [404]BALIERAYDONWILD RUNNER20MALESENMSEN0:35:27
2115 [404]MUKUSABLESSINGCELTIC26MALESENMSEN0:36:17
2216 [404]GQOTILEAMZWANELERCS GUGS31MALESENMSEN0:36:34
232 [90]NGCWAMASABELOCELTIC42MALE40M400:36:49
244 [71]THEMBEKOMENDURCS GUGS16MALEJUNMJUN0:37:10
253 [90]MACANDAXOLILERCS GUGS44MALE40M400:37:32
2617 [404]SETLABASEISOEASTERNS MALESENMSEN0:37:43
2718 [404]GELEMPHUMEZOEASTERNS30MALESENMSEN0:38:13
285 [71]KWATSHAASEMAHLECELTIC17MALEJUNMJUN0:38:36
2919 [404]ALFREDNDESIRCS GUGS28MALESENMSEN0:38:37
3020 [404]NO NAME HOUT BAY20MALESENMSEN0:38:45
314 [90]MOLOIKABELOSANDF WP42MALE40M400:38:46
326 [71]GALANTBRANDONSPAAC19MALEJUNMJUN0:38:51
337 [71]THOTHWANAAYEBONGASPAAC18MALEJUNMJUN0:38:52
341 [68]MITCHELLCHRISCELTIC53MALE50M500:38:55
3521 [404]NO RETURN UCT MALESENMSEN0:38:59
361 [652]CHIDZIVOFORTUNATECELTIC28FEMALESENFSEN0:39:08
371 [47]SIMONISASHLEIGHCARBINEERS WP17FEMALEJUNFJUN0:39:08
382 [68]TUTANIMONDERCS GUGS53MALE50M500:39:27
398 [71]SHANESIMONPINELANDS15MALEJUNMJUN0:39:38
402 [47]ALLYM SOLEEGOMMIEDRAAI19FEMALEJUNFJUN0:40:16
419 [71]BRUINERSJASONMETROPOLITAN19MALEJUNMJUN0:40:19
4210 [71]HAMMONDCALVINPINELANDS16MALEJUNMJUN0:40:29
435 [90]BRUINERSHEINMETROPOLITAN42MALE40M400:40:50
4422 [404]ZANDISILEMWILD RUNNER30MALESENMSEN0:40:56
4523 [404]DUMZELEFUNDILETEMP MALESENMSEN0:41:05
4624 [404]TEMBANIXANTIRCS GUGS26MALESENMSEN0:41:13
471 [74]NELMARIUSWEST COAST46MALE45M450:41:16
486 [90]TAFENISEBENZILEK-WAY VOB40MALE40M400:41:20
4925 [404]NO RETURN RCS GUGS MALESENMSEN0:41:24
502 [652]MAPHITSHAXITEMP33FEMALESENFSEN0:41:41
513 [68]PARKINSSTEVENTYGERBERG54MALE50M500:41:43
5211 [71] MATHIUSHOUT BAY18MALEJUNMJUN0:41:45
531 [25]TOMGEMJIKILEESKOM60MALE60M600:42:07
543 [47]MOYIKWAPAMELAK-WAY VOB19FEMALEJUNFJUN0:42:08
551 [120]MATIWANEBUSISIWECELTIC40FEMALE40F400:42:19
561 [40]JACOBSGREGORYEDGEMEAD56MALE55M550:42:47
571 [79]STRAUSSMARIETTETYGERBERG52FEMALE50F500:42:59
5826 [404]MARCUSMUZEMBEARD29MALESENMSEN0:42:59
591 [55]HOWARDOLGACELTIC56FEMALE55F550:43:22
602 [120]WESSONANELFISH HOEK40FEMALE40F400:43:32
613 [652]NGCANTSINOMAXESIBEK-WAY VOB20FEMALESENFSEN0:43:56
623 [76]JANSONGCELTIC39MALE35M350:44:15
634 [76]MZANAREUBENTEMP35MALE35M350:44:17
6427 [404]MOOPILEBOHANGUWC26MALESENMSEN0:44:18
6528 [404]GREENJOEEDGEMEAD27MALESENMSEN0:44:31
6629 [404]TROMPNICTEMP24MALESENMSEN0:44:38
6712 [71]BOYDASHWINCELTIC15MALEJUNMJUN0:44:52
6830 [404]SAIDFAHDTEMP31MALESENMSEN0:45:03
694 [47]GWALABUSISIWEK-WAY VOB18FEMALEJUNFJUN0:45:09
7031 [404]DOBBINJAREDTEMP22MALESENMSEN0:45:12
7132 [404]DONENMATTHEWTEMP25MALESENMSEN0:45:20
725 [76]LEWISSAFWAANCELTIC37MALE35M350:45:21
736 [76]SAMUELROBINCAPE MULTISPORT39MALE35M350:45:28
744 [652]STUART-SMITHALEXK-WAY VOB20FEMALESENFSEN0:45:31
7533 [404]NO RETURN TEMP MALESENMSEN0:45:40
7634 [404]ELLISMICHAELATC31MALESENMSEN0:45:57
7735 [404]VAROJOSETEMP MALESENMSEN0:46:00
787 [90]THOMASBRIANK-WAY VOB42MALE40M400:46:04
7936 [404]NO RETURN TEMP MALESENMSEN0:46:13
8037 [404]SOCHENMARKATC34MALESENMSEN0:46:29
817 [76]SAMIR OLD MUTUAL35MALE35M350:46:35
8238 [404]SIPHESANDEMALGASCENTURY CITY24MALESENMSEN0:46:38
8339 [404]GASSBENJAMINTEMP32MALESENMSEN0:46:43
842 [40]DRAMATSHAMIELTOP FORM55MALE55M550:46:44
852 [55]CUPIDOCHARMAINENEDBANK WP59FEMALE55F550:46:46
8613 [71]SOUMAABDURAGHMAANESKOM16MALEJUNMJUN0:46:49
878 [90]WESSONJONATHANFISH HOEK41MALE40M400:46:51
8840 [404]MYBURGHADRIANTEMP30MALESENMSEN0:46:52
8941 [404]JONATHANRAZEENTEMP32MALESENMSEN0:47:00
904 [68]JACOBSMAARTENTEMP52MALE50M500:47:02
9142 [404]HARRISEESAATEMP MALESENMSEN0:47:17
9243 [404]JACOBSABDULNANTES23MALESENMSEN0:47:26
938 [76]STERMINPAOLO24.COM39MALE35M350:47:28
9414 [71]KHANIMTIYAAZKENFAC16MALEJUNMJUN0:47:30
9515 [71]ORRIERIAZITHEKO15MALEJUNMJUN0:47:31
9616 [71]PETERSENISMAILITHEKO15MALEJUNMJUN0:47:35
9744 [404]AMENTJUDITHOBS25MALESENMSEN0:47:39
9845 [404]HOGANJAREDEDGEMEAD26MALESENMSEN0:47:42
995 [652]MTHETHANOCWAKACELTIC20FEMALESENFSEN0:47:46
1003 [55]CHARTERSBEVK-WAY VOB57FEMALE55F550:47:49
1012 [74]SYMINGTONAUBREYTEMP47MALE45M450:47:52
1029 [76]KHANASHRAFKENFAC37MALE35M350:47:54
1036 [652]FYNNMELODYWILD RUNNER28FEMALESENFSEN0:47:57
1041 [9]VAN WYKWILLIEBRACKENFELL67MALE65M650:48:01
10546 [404]NO CARD TEMP MALESENMSEN0:48:09
10617 [71]ISAACSTAARIQTEMP19MALEJUNMJUN0:48:39
10747 [404]NO RETURN TEMP MALESENMSEN0:48:48
10810 [76]GOMEZ ROSOPAKOTEMP36MALE35M350:48:48
1097 [652]VIVIERSLEANNETEMP21FEMALESENFSEN0:48:51
11048 [404]NO RETURN TEMP MALESENMSEN0:48:53
1112 [9]FRIESLICHNEVILLEFISH HOEK65MALE65M650:48:59
11249 [404]DANIELSHAAZIMTEMP30MALESENMSEN0:49:02
11350 [404]NO RETURN TEMP MALESENMSEN0:49:22
1145 [47]CLOTILDEGAVAGNACHTEMP18FEMALEJUNFJUN0:49:24
1153 [40]DOLSGERTWEST COAST56MALE55M550:49:25
1169 [90]SEPTEMBERSEANK-WAY VOB44MALE40M400:49:29
11751 [404]KOTZEHENNIESANLAM27MALESENMSEN0:49:30
11852 [404]PHAGEMOGOMOTSITEMP23MALESENMSEN0:49:33
11953 [404]WOODRUFFLANCETEMP34MALESENMSEN0:49:40
12054 [404]DAVIDSFAWUSAAZTEMP25MALESENMSEN0:49:42
12155 [404]NO RETURN   MALESENMSEN0:49:50
1228 [652]NO RETURN UCT FEMALESENFSEN0:49:51
12356 [404]HENDRICKSEREZATEMP34MALESENMSEN0:49:51
12411 [76]MITCHELLWARRENTEMP37MALE35M350:49:53
1251 [73]WERTHGLENDASANLAM45FEMALE45F450:49:54
1266 [47]KAMALDIENRAZAANARD15FEMALEJUNFJUN0:49:57
12757 [404]NO RETURN TEMP MALESENMSEN0:50:02
1287 [47]DOYLEMIAPAREL VALLEI HS14FEMALEJUNFJUN0:50:03
12958 [404]NO CARD TEMP MALESENMSEN0:50:09
13059 [404]MORRISCLINTWILD RUNNER26MALESENMSEN0:50:13
1319 [652]VORSTERUNICETEMP29FEMALESENFSEN0:50:22
13212 [76]GABRIELSZAMIERMETROPOLITAN39MALE35M350:50:30
1335 [68]BOONZAAIERJOHANNEDBANK WP53MALE50M500:50:32
13418 [71]GENSICKEJONASPINELANDS15MALEJUNMJUN0:50:34
1356 [68]MAXWELLDAVIDK-WAY VOB50MALE50M500:50:34
13660 [404]NO CARD TEMP MALESENMSEN0:50:36
13713 [76]BLACKMANMATTHEWTEMP39MALE35M350:50:40
13810 [652]SUTTNERKIARATEMP24FEMALESENFSEN0:50:44
13961 [404]NGONGULALAWRENCETEMP MALESENMSEN0:50:46
14014 [76]TYEJOHNBELLVILLE37MALE35M350:50:51
14162 [404]BWFRINDFATAWAMOATEMP32MALESENMSEN0:50:54
1423 [120]MEYERMARNETTECAPE MULTISPORT40FEMALE40F400:50:56
14363 [404]NO RETURN TEMP MALESENMSEN0:51:02
14411 [652]BURLSSAMK-WAY VOB32FEMALESENFSEN0:51:03
14564 [404]RIVANTEMP MALESENMSEN0:51:03
14665 [404]NO CARD EDGEMEAD MALESENMSEN0:51:09
14766 [404]NO CARD EDGEMEAD MALESENMSEN0:51:21
14867 [404]ELLAMANWILHELMTEMP31MALESENMSEN0:51:24
14912 [652]NO RETURN UCT FEMALESENFSEN0:51:27
1503 [74]O'MAHONYBARRYHARFIELD45MALE45M450:51:31
15168 [404]BASARDIENMAAHIRTEMP MALESENMSEN0:51:33
15210 [90]OIVA TEMP41MALE40M400:51:35
1534 [74]CHANDLERKEITHK-WAY VOB46MALE45M450:51:36
15419 [71]JUMANM YAASEENCENTRAL AC17MALEJUNMJUN0:51:46
15569 [404]GROLLNICKAAC31MALESENMSEN0:51:50
15613 [652]MATTHEWSDOMINIQUETEMP22FEMALESENFSEN0:51:52
15720 [71] ANATHIRCS GUGS15MALEJUNMJUN0:51:54
15870 [404]NO RETURN   MALESENMSEN0:51:56
15971 [404]NO RETURN   MALESENMSEN0:51:56
1605 [74]NICHOLSBRETTTEMP49MALE45M450:51:57
16111 [90]BLANK CARD   MALE40M400:51:59
1621 [28]MIDDELKOOPDAWNTEMP60FEMALE60F600:52:03
16321 [71]KOETSIERTENZINTEMP16MALEJUNMJUN0:52:07
1642 [25]ROTHMANBRIANBRACKENFELL62MALE60M600:52:08
16572 [404]NACERODIENADIELTEMP31MALESENMSEN0:52:09
16615 [76]SALIEFAHEEMCAPE MULTISPORT36MALE35M350:52:09
16714 [652]FRENZKARLICAPE MULTISPORT20FEMALESENFSEN0:52:09
16873 [404]NO CARD TEMP MALESENMSEN0:52:12
1696 [74]BERNHARDTJOHNTEMP48MALE45M450:52:14
17074 [404]KELLYDARRENEDGEMEAD20MALESENMSEN0:52:16
17175 [404]NO RETURN   MALESENMSEN0:52:19
17212 [90]SITOLEHARRYRCS GUGS41MALE40M400:52:20
17376 [404]KELLYJONATHANEDGEMEAD26MALESENMSEN0:52:21
17415 [652] NICOLAK-WAY VOB27FEMALESENFSEN0:52:22
1752 [28]DU PLESSISHELENTYGERBERG62FEMALE60F600:52:22
17622 [71]SHAKEELSHIRAZNANTES13MALEJUNMJUN0:52:30
17777 [404]SEBOGODIMDSANDF WP30MALESENMSEN0:52:36
17823 [71]BRUINERSBEVANMETROPOLITAN14MALEJUNMJUN0:52:38
17978 [404]MAGQAMFANANTEMP MALESENMSEN0:52:43
1808 [47]TAETSOTHABISABRACKENFELL19FEMALEJUNFJUN0:52:43
18179 [404]NO RETURN TEMP MALESENMSEN0:52:45
18280 [404]NO CARD   MALESENMSEN0:52:53
18316 [76]POOLEMTEMP35MALE35M350:52:53
18481 [404]FLEETWOODJOSHUACELTIC24MALESENMSEN0:52:53
18582 [404]LUCASGAVINK-WAY VOB34MALESENMSEN0:52:54
18683 [404]BLANK CARD   MALESENMSEN0:52:55
18716 [652]JACOBSFARANAAZITHEKO27FEMALESENFSEN0:52:57
18824 [71]DE WETSIMONTEMP18MALEJUNMJUN0:52:58
18984 [404]HARGEYBILALTEMP31MALESENMSEN0:52:59
19017 [76]HANTIBISIZAKELESAPS WP37MALE35M350:53:01
19185 [404]JAMIEJUNAIDTEMP24MALESENMSEN0:53:04
19286 [404]RAKGOTHOPABALLOTEMP30MALESENMSEN0:53:08
1939 [47]NO RETURN TEMP FEMALEJUNFJUN0:53:11
19417 [652]BAARDALICIATEMP28FEMALESENFSEN0:53:17
19587 [404]NO CARD   MALESENMSEN0:53:17
19688 [404]FAUREMARLYNCELTIC26MALESENMSEN0:53:18
19789 [404]LUCKANGHAFOERTEMP29MALESENMSEN0:53:18
19890 [404]NO CARD   MALESENMSEN0:53:18
19918 [76]COKOYIVUYANIBORN 2 RUN38MALE35M350:53:18
20091 [404]O'NEILLKURTTEMP22MALESENMSEN0:53:20
2014 [40]LOURENSCHRISBRACKENFELL59MALE55M550:53:27
2027 [74]GANGRAKARMUJEEBITHEKO45MALE45M450:53:27
20313 [90]VAN WYKDANIELTEMP MALE40M400:53:28
20492 [404]NO RETURN   MALESENMSEN0:53:28
2057 [68]CROWSTERRAGANALDTYGERBERG52MALE50M500:53:28
20614 [90]STEENKAMPHOWARDEDGEMEAD43MALE40M400:53:29
20793 [404]NO RETURN TEMP MALESENMSEN0:53:33
2081 [114]VAN DER BERGCARIENBRACKENFELL35FEMALE35F350:53:37
20919 [76]DIRKRAFIEKCAPE MULTISPORT36MALE35M350:53:38
21025 [71] JOHANDRETEMP MALEJUNMJUN0:53:48
2113 [9]VAN NIEKERKGERRITWEST COAST66MALE65M650:53:53
21294 [404]NO RETURN TEMP MALESENMSEN0:53:55
21395 [404]MOSESWESLEYCELTIC30MALESENMSEN0:53:57
21415 [90]O'SHEAMARIOSPARTAN40MALE40M400:53:58
2152 [114]JADWATSADIKAITHEKO39FEMALE35F350:54:01
21618 [652]NO RETURN   FEMALESENFSEN0:54:01
21719 [652]HUMANANUZKATEMP25FEMALESENFSEN0:54:01
21896 [404]NO RETURN   MALESENMSEN0:54:03
21997 [404]LEEZIYAADTEMP22MALESENMSEN0:54:06
22010 [47]TOBIASEDENEDGEMEAD18FEMALEJUNFJUN0:54:06
22198 [404]DIKOANDILETEMP30MALESENMSEN0:54:09
22226 [71] MARLICTEMP17MALEJUNMJUN0:54:09
22316 [90]IDASJCPAARL44MALE40M400:54:10
22427 [71]SAMAAIYAAQUBTOP FORM17MALEJUNMJUN0:54:10
22599 [404]NO RETURN   MALESENMSEN0:54:12
22611 [47]PITTTEGANFISH HOEK17FEMALEJUNFJUN0:54:14
22720 [76]LOOTSPIETERTEMP38MALE35M350:54:20
228100 [404]PHILLIPSZAHIRKENFAC22MALESENMSEN0:54:20
2298 [74]PITTALANFISH HOEK46MALE45M450:54:21
230101 [404]NO RETURN   MALESENMSEN0:54:24
2313 [25]BATTDERICKBELLVILLE61MALE60M600:54:26
232102 [404]OSBORNDARRENWPCC27MALESENMSEN0:54:30
23328 [71]MEYERJEANTEMP14MALEJUNMJUN0:54:32
234103 [404]NO RETURN   MALESENMSEN0:54:37
235104 [404]WILLIAMSFAWAZTEMP31MALESENMSEN0:54:38
236105 [404]KHWELAESTEMP32MALESENMSEN0:54:38
2373 [28]VAN ECKCOLLETTEFISH HOEK62FEMALE60F600:54:41
2384 [25]NELLPETERCAPE MULTISPORT60MALE60M600:54:43
23921 [76]ROBSONSEANAAC36MALE35M350:54:45
240106 [404]STOFFELSMARKTEMP31MALESENMSEN0:54:50
241107 [404]MOTSEOKATLEGOTEMP30MALESENMSEN0:54:50
242108 [404]NO RETURN   MALESENMSEN0:54:51
24322 [76]BALKINNTEMP35MALE35M350:54:53
2449 [74]DRAMATSHARIEFTEMP46MALE45M450:54:54
245109 [404]MAPHARIROFHIWATEMP27MALESENMSEN0:54:56
24620 [652]WEDDERBURNJAMIE-LEETEMP24FEMALESENFSEN0:54:56
24721 [652]NO CARD TEMP FEMALESENFSEN0:54:56
24822 [652]FAZENDAANNA-MARITEMP32FEMALESENFSEN0:54:59
24923 [76]SWARTFRANCOISTEMP37MALE35M350:54:59
250110 [404]BEGGHUSAINTEMP22MALESENMSEN0:55:04
25129 [71]PORTOCARERORODERICKTEMP19MALEJUNMJUN0:55:04
252111 [404]`SAMAAINADIRTEMP24MALESENMSEN0:55:06
25323 [652]CAMUCHLOEMATIES21FEMALESENFSEN0:55:06
25410 [74]SWARTZLEONARD45MALE45M450:55:07
2554 [55]HUMANORATEMP57FEMALE55F550:55:09
25611 [74]GELDENHUYSDONOVANTYGERBERG48MALE45M450:55:11
2578 [68]KHONZA RCS GUGS MALE50M500:55:15
258112 [404]VAN RENSBURGADRIANTEMP20MALESENMSEN0:55:18
25924 [652]NQAYIMANDISARCS GUGS29FEMALESENFSEN0:55:18
260113 [404]NO CARD TEMP MALESENMSEN0:55:21
26124 [76]SAMUELDAVIDCAPE MULTISPORT37MALE35M350:55:24
26217 [90]MATTHEWSBRETTTEMP42MALE40M400:55:25
26312 [74]SPRADLINTODDTEMP46MALE45M450:55:27
26418 [90]RINCOELDERTEMP41MALE40M400:55:28
265114 [404]NO CARD   MALESENMSEN0:55:35
26625 [652]ORRIENABEELAHITHEKO20FEMALESENFSEN0:55:36
26725 [76]UYSWILLEMTEMP39MALE35M350:55:37
268115 [404]EXFORDDAVIDTEMP23MALESENMSEN0:55:41
26926 [652]NO CARD TEMP FEMALESENFSEN0:55:44
27027 [652]WARESHEATHERTEMP30FEMALESENFSEN0:55:45
27128 [652]CARIEMRAHMAITHEKO24FEMALESENFSEN0:55:48
27229 [652]VAZQUELROLIATEMP FEMALESENFSEN0:55:49
27313 [74]HENDRICKSSHAHEEDCENTRAL AC47MALE45M450:55:56
27430 [71]KAMIESAAKIFITHEKO14MALEJUNMJUN0:55:58
275116 [404]STEYNDOUWDURBAC33MALESENMSEN0:55:58
27630 [652]DAYARAMANISHARUN WALK 4 LIFE29FEMALESENFSEN0:55:59
2775 [40]SNAPENEILLAAC59MALE55M550:56:04
278117 [404]NO CARD   MALESENMSEN0:56:04
27931 [71]TYESIAVIWETEMP MALEJUNMJUN0:56:05
280118 [404]MAGOQONTANDOTEMP MALESENMSEN0:56:05
281119 [404]REIDCRAIGTEMP32MALESENMSEN0:56:09
28212 [47]MOSTERTDUANEBRACKENFELL17FEMALEJUNFJUN0:56:12
28331 [652]EWERTAMMYBRACKENFELL27FEMALESENFSEN0:56:14
28432 [652]BELLINGERMEGANTEMP25FEMALESENFSEN0:56:17
285120 [404]CRISPANDRANTEMP33MALESENMSEN0:56:17
2866 [40]WITZLESLIEWILD RUNNER56MALE55M550:56:17
2874 [120]BOBOTYANAPHUMEZARCS GUGS42FEMALE40F400:56:18
288121 [404]MOGAMAT TEMP29MALESENMSEN0:56:18
28933 [652]VAN NIEKERKMELANIEWEST COAST21FEMALESENFSEN0:56:21
2903 [114]MARAISBIANCAATC39FEMALE35F350:56:21
291122 [404]JAMESPHILLIPTEMP MALESENMSEN0:56:23
29234 [652]CUNNINGHAMSARAHCARBINEERS WP34FEMALESENFSEN0:56:24
29314 [74]SCHOLTZEISCHCPUT48MALE45M450:56:24
29435 [652]CHINTAYLAK-WAY VOB24FEMALESENFSEN0:56:26
29536 [652]NO CARD   FEMALESENFSEN0:56:29
29615 [74]KINGSWELLANDREWSANDF WP48MALE45M450:56:30
297123 [404]RATSELANESMSANDF WP30MALESENMSEN0:56:30
298124 [404]KARIEMNAZMIETEMP29MALESENMSEN0:56:31
29926 [76]MOOLAISMAILTEMP36MALE35M350:56:33
3009 [68]ABDURAHMANMSTRAGGLERS52MALE50M500:56:34
301125 [404]CREDEBENTEMP30MALESENMSEN0:56:35
30237 [652]MOEKELISESWARTLAND23FEMALESENFSEN0:56:35
303126 [404]SAHIBZAINULTEMP MALESENMSEN0:56:37
30438 [652]FUAZANGELETEMP33FEMALESENFSEN0:56:37
3054 [114]CRONJETAMLYNTEMP37FEMALE35F350:56:42
306127 [404]RODRIGUESALEXTEMP31MALESENMSEN0:56:43
30739 [652]PURSERSTEPHANIEAAC27FEMALESENFSEN0:56:43
308128 [404]BAIRDCHRISTEMP30MALESENMSEN0:56:44
309129 [404]PAULVIN TEMP28MALESENMSEN0:56:45
310130 [404]NO CARD   MALESENMSEN0:56:48
311131 [404]VISSERNEILTYGERBERG28MALESENMSEN0:56:53
31210 [68]DE JAGERFAFFAGOODWOOD53MALE50M500:56:58
3137 [40]COCKCROFTAEDGEMEAD59MALE55M550:56:58
314132 [404]NO CARD   MALESENMSEN0:57:02
315133 [404]WELLSANDRETEMP MALESENMSEN0:57:07
31627 [76]CAWDRYANDREWCAPE MULTISPORT38MALE35M350:57:07
317134 [404]NO CARD   MALESENMSEN0:57:11
31840 [652]SLABBERJENNIETEMP32FEMALESENFSEN0:57:12
319135 [404]LUKANZIYAADTEMP20MALESENMSEN0:57:13
320136 [404]FREDERICKSISMAEELTEMP25MALESENMSEN0:57:15
32141 [652]BENKENSTEINBEANCATEMP33FEMALESENFSEN0:57:15
32242 [652]HUGGETTCAYLEIGHTEMP22FEMALESENFSEN0:57:17
32343 [652]BLANK CARD   FEMALESENFSEN0:57:18
32416 [74]TEMMERSWILLIAMNANTES49MALE45M450:57:19
3258 [40]DONALDSONANDREWTEMP57MALE55M550:57:20
3269 [40]LEIBBRANDTMURRAYPINELANDS55MALE55M550:57:20
3272 [73]HUNTEROONAGHTEMP45FEMALE45F450:57:21
32817 [74]EBRAHIMABDUL BASILOMMIEDRAAI48MALE45M450:57:23
32932 [71]SMUTSMARKTEMP16MALEJUNMJUN0:57:23
33011 [68]HENDRICKSWAYNEMIDAS SPARTANS MALE50M500:57:25
331137 [404]NO RETURN   MALESENMSEN0:57:26
33218 [74]ZARSIMONTEMP46MALE45M450:57:27
333138 [404]DIXONJONTEMP24MALESENMSEN0:57:32
334139 [404]ATKINSONRTEMP24MALESENMSEN0:57:35
33544 [652]COMMINDONNETEMP FEMALESENFSEN0:57:37
3363 [73]SNOWDONPTEMP48FEMALE45F450:57:39
33745 [652]NO CARD   FEMALESENFSEN0:57:41
338140 [404]ORTLEPPMICHAELSACS OBS34MALESENMSEN0:57:42
3395 [114]PARTENKIRNAZREENITHEKO37FEMALE35F350:57:43
340141 [404]WHELANSEANTEMP28MALESENMSEN0:57:44
341142 [404] TIMTEMP29MALESENMSEN0:57:46
342143 [404]NO RETURN   MALESENMSEN0:57:47
3432 [79]ADAMSCARLYNK-WAY VOB52FEMALE50F500:57:48
3444 [73]VAN DER WESTHUIZENGINASANLAM47FEMALE45F450:57:48
34546 [652]NO CARD   FEMALESENFSEN0:57:51
34633 [71] ANDRETEMP17MALEJUNMJUN0:57:51
347144 [404]CRAVENMICKSTELLENBOSCH31MALESENMSEN0:57:53
34847 [652]CRAVENJEANIESTELLENBOSCH32FEMALESENFSEN0:57:54
3495 [120]HILLNICKICARBINEERS WP40FEMALE40F400:57:54
3503 [79]SZOT MYBURGNATALIESPARTAN51FEMALE50F500:57:55
351145 [404]ADAMSMOEGAMTARD27MALESENMSEN0:57:57
352146 [404]NO CARD   MALESENMSEN0:57:59
3534 [9]ABRAHAMSMYTOP FORM67MALE65M650:58:00
354147 [404]NO RETURN   MALESENMSEN0:58:02
35534 [71]CILLIERSPIETERTEMP14MALEJUNMJUN0:58:03
35619 [74]ISMAILSHAMILHARFIELD46MALE45M450:58:04
357148 [404]NO CARD   MALESENMSEN0:58:05
358149 [404]SMITHLINCOLNTEMP25MALESENMSEN0:58:07
35948 [652]ABDURAHMANNURAHNSPARTAN32FEMALESENFSEN0:58:07
360150 [404]RIXANDRETEMP28MALESENMSEN0:58:09
36120 [74]WELGEMOEDANDRESTRAND46MALE45M450:58:11
36212 [68]PHILLIPSRIEDWAANKENFAC54MALE50M500:58:12
36349 [652]SCHOEMANCARLAAAC32FEMALESENFSEN0:58:13
36450 [652]NO RETURN   FEMALESENFSEN0:58:14
36513 [68]WISBEACHJAMESTEMP MALE50M500:58:15
36610 [40]WARRINGTONMSANDF WP56MALE55M550:58:16
36751 [652]SALANTNATASHATEMP22FEMALESENFSEN0:58:17
36852 [652]NO CARD   FEMALESENFSEN0:58:17
36953 [652]HARRISBERGKIMRAC24FEMALESENFSEN0:58:18
370151 [404]SOLOMONDYLANNANTES28MALESENMSEN0:58:19
3716 [114]O'MAHONYLISAHARFIELD39FEMALE35F350:58:20
3727 [114]BRIERS-BANKSBELINDATEMP39FEMALE35F350:58:20
37354 [652]MOJAPILOTHATOTEMP26FEMALESENFSEN0:58:22
37435 [71]NORTJESTEFANTEMP15MALEJUNMJUN0:58:23
37555 [652]MOSESCARMENTEMP26FEMALESENFSEN0:58:23
376152 [404]ROGERSM SHAHIEMTEMP21MALESENMSEN0:58:25
3778 [114]DATININDUMISORCS GUGS39FEMALE35F350:58:27
37856 [652]NO CARD   FEMALESENFSEN0:58:28
3799 [114]DU PLESSISDIANATEMP36FEMALE35F350:58:28
38014 [68]DUNCANEDDIETEMP50MALE50M500:58:29
38115 [68]DAMONSABIEUWC50MALE50M500:58:30
38257 [652]HAHLANGENIOKUHLETEMP20FEMALESENFSEN0:58:31
38358 [652]NO CARD   FEMALESENFSEN0:58:33
3845 [73]VAN ROMBURGHTALIATEMP49FEMALE45F450:58:38
3856 [120]HAUCKMARIATEMP43FEMALE40F400:58:39
386153 [404]DU TOITJUSTINTEMP29MALESENMSEN0:58:41
387154 [404]NO CARD   MALESENMSEN0:58:43
38816 [68]HENDRICKSMOGAMADOMMIEDRAAI52MALE50M500:58:45
38928 [76]CRONJEJOHNTEMP37MALE35M350:58:49
39021 [74]MUPFUNYAJAMESTEMP49MALE45M450:58:51
39122 [74] HILTONTEMP46MALE45M450:58:53
392155 [404]TAURANTADRIANTEMP29MALESENMSEN0:58:54
39329 [76]NAKELIMALEFETSANESANDF WP35MALE35M350:58:55
39411 [40]AEBISCHERROLFCELTIC58MALE55M550:58:56
39559 [652]AEBISCHERAMYCELTIC25FEMALESENFSEN0:58:56
3961 [3]HERBERTMARIETHATEMP70FEMALE70F700:58:58
39760 [652]NO CARD   FEMALESENFSEN0:58:59
3984 [79]THERONKARINTEMP54FEMALE50F500:59:01
39917 [68]THERONSTEMP MALE50M500:59:01
400156 [404]VAN DER MERWEGIDEONCAPE MULTISPORT23MALESENMSEN0:59:02
40118 [68]VAN WYKBASIETEMP51MALE50M500:59:03
4027 [120]KITCHINGVANESSATEMP42FEMALE40F400:59:04
4038 [120]BEATTIETANYAHOUT BAY43FEMALE40F400:59:05
40430 [76]DE BRUYNSEDICKTEMP36MALE35M350:59:05
405157 [404]NO RETURN   MALESENMSEN0:59:05
40661 [652]HAIDENINGRIDTEMP30FEMALESENFSEN0:59:07
40762 [652]NO CARD   FEMALESENFSEN0:59:10
40863 [652]VUNAZANDILERCS GUGS31FEMALESENFSEN0:59:10
4095 [79]VERDOORNPIMTEMP50FEMALE50F500:59:11
41064 [652]NO RETURN   FEMALESENFSEN0:59:13
411158 [404]VERESHINGIRAITEMP30MALESENMSEN0:59:14
412159 [404]JANSENJAKOBUSTEMP31MALESENMSEN0:59:14
41365 [652]RABIESHANEETEMP26FEMALESENFSEN0:59:15
4145 [25]AJERAANISMAILTOP FORM60MALE60M600:59:16
415160 [404]NO CARD   MALESENMSEN0:59:16
416161 [404]KADERZAHEEDTEMP29MALESENMSEN0:59:17
41766 [652]NO RETURN   FEMALESENFSEN0:59:18
41867 [652]LOUWMARIARCS GUGS34FEMALESENFSEN0:59:18
41931 [76]PENDERMITEMP37MALE35M350:59:21
420162 [404]NO CARD   MALESENMSEN0:59:22
42132 [76]PATHERFAZLULTEMP35MALE35M350:59:24
42210 [114]BELEBUSICENTURY CITY38FEMALE35F350:59:30
42336 [71]ENGELBRECHTWILLEMTEMP17MALEJUNMJUN0:59:31
42433 [76]MXOLISI TEMP37MALE35M350:59:32
42568 [652]KWAYIMANIZANELETEMP FEMALESENFSEN0:59:34
4265 [55] DOMINIQUEMELKBOS55FEMALE55F550:59:36
4276 [73]MORARTANIAK-WAY VOB46FEMALE45F450:59:40
42869 [652]WAKEFIELDNADINETEMP34FEMALESENFSEN0:59:41
42934 [76]LUCANIMARKTEMP35MALE35M350:59:43
430163 [404]OSMANABDULLAHOLD MUTUAL29MALESENMSEN0:59:43
4317 [73]BUCHNIERCHARMAINESPARTAN45FEMALE45F450:59:44
43270 [652]BOSHOFFKARACAPE MULTISPORT23FEMALESENFSEN0:59:45
43323 [74]HOFFMANTIMTEMP47MALE45M450:59:45
43419 [90]FREDERICKSSALIEMY TRAINING DAY42MALE40M400:59:45
43535 [76]KARAGEARGADESMARKOTEMP35MALE35M350:59:45
436164 [404]NO CARD   MALESENMSEN0:59:47
437165 [404]NO RETURN   MALESENMSEN0:59:47
43871 [652]NO RETURN   FEMALESENFSEN0:59:51
43972 [652]WEHMEYERNINATEMP24FEMALESENFSEN0:59:52
44011 [114]CAMPBELLWENDYRUN WALK 4 LIFE36FEMALE35F350:59:52
44112 [114]MARSHALLGEROGINARUN WALK 4 LIFE39FEMALE35F350:59:53
44220 [90]MCGREGORFELIXTEMP40MALE40M400:59:54
443166 [404]PAYILUNGELOTEMP MALESENMSEN0:59:55
444167 [404]NO CARD   MALESENMSEN0:59:56
44537 [71]MADABELASIVIWETEMP18MALEJUNMJUN0:59:56
44636 [76]KLAASSENSAMUELTEMP36MALE35M350:59:57
447168 [404]SCHULTZKEAGANBRACKENFELL MALESENMSEN0:59:58
448169 [404]LEWINABDUL-MUIZHARD34MALESENMSEN0:59:58
44973 [652]NO RETURN   FEMALESENFSEN0:59:58
45074 [652]MAHLANGENIOVUYILETEMP24FEMALESENFSEN0:59:58
451170 [404]NXASANAMANGALISOTEMP23MALESENMSEN0:59:59
45275 [652]DELPORTKANDICAPE MULTISPORT26FEMALESENFSEN0:59:59
4534 [28]ISAACSTHERESAK-WAY VOB63FEMALE60F600:59:59
45476 [652]PASSMANANGIEDURBAC33FEMALESENFSEN1:00:05
45577 [652]MBUSITHANDISWAUCT20FEMALESENFSEN1:00:06
4566 [25]CAMMACKTIMTEMP MALE60M601:00:06
457171 [404]NO CARD   MALESENMSEN1:00:06
45813 [114]KEMPENJANINECAPE MULTISPORT35FEMALE35F351:00:09
45938 [71]MEIRINGELATEMP15MALEJUNMJUN1:00:09
46021 [90]MEIRINGFRANCOISTEMP43MALE40M401:00:10
46178 [652]WAGNERTARRYNUCT21FEMALESENFSEN1:00:10
46279 [652]NO CARD   FEMALESENFSEN1:00:14
46380 [652]SEPTEMBERAMORETTAEASTERNS20FEMALESENFSEN1:00:15
4649 [120]HOLTZHAUSENMEGATC40FEMALE40F401:00:15
46581 [652]MERRETTKERRYCELTIC31FEMALESENFSEN1:00:16
466172 [404]HARKOFFKYLETEMP20MALESENMSEN1:00:18
46782 [652] TANYATEMP20FEMALESENFSEN1:00:18
4685 [28]DAWSONNANCYCELTIC64FEMALE60F601:00:18
4696 [55]BISSETANNECELTIC59FEMALE55F551:00:19
47083 [652]RICHARDSONSANDIRCS GUGS32FEMALESENFSEN1:00:20
47113 [47]WILLIAMSJUSTINEARD17FEMALEJUNFJUN1:00:22
47284 [652]ECONSTANCETEMP FEMALESENFSEN1:00:22
47385 [652]NO CARD   FEMALESENFSEN1:00:22
474173 [404]TAYOBIMRAANTEMP34MALESENMSEN1:00:23
475174 [404]NO CARD   MALESENMSEN1:00:23
47614 [114]ABDURAHMANZULFATEMP36FEMALE35F351:00:25
47737 [76]EMMANUELALVINTEMP39MALE35M351:00:26
47886 [652]BODILLLAURENQUIRK28FEMALESENFSEN1:00:31
47987 [652]NO RETURN   FEMALESENFSEN1:00:32
48039 [71]COZYNISMA-EELRCS GUGS14MALEJUNMJUN1:00:36
48138 [76]PICKFORDROSSK-WAY VOB39MALE35M351:00:36
48219 [68]V D HEEVERCHRISIN TOUCH51MALE50M501:00:37
48322 [90]MUNROJACQUESRUN WALK 4 LIFE MALE40M401:00:37
48488 [652]NO CARD   FEMALESENFSEN1:00:37
4857 [55]DELPORTDIANEK-WAY VOB58FEMALE55F551:00:38
4867 [25]DELPORTSTEPHENK-WAY VOB62MALE60M601:00:40
48712 [40]PASTORGARYLIBERTY55MALE55M551:00:41
48840 [71]DAVIDSHOUSTONWELLINGTON15MALEJUNMJUN1:00:41
48939 [76]MICHIEGRAEMECELTIC35MALE35M351:00:42
490175 [404]STERLINGOLENCARBINEERS WP33MALESENMSEN1:00:42
49113 [40]GEYSERFREEKTEMP57MALE55M551:00:42
49289 [652]SWANEPOELROBYNTEMP31FEMALESENFSEN1:00:47
49390 [652]WESSELSAMYTEMP24FEMALESENFSEN1:00:48
49415 [114]PICKFORDVANESSAK-WAY VOB38FEMALE35F351:00:48
495176 [404]WILSONDARYLLTEMP23MALESENMSEN1:00:49
496177 [404]BENKENSTEINJACOBIRUN WALK 4 LIFE31MALESENMSEN1:00:49
497178 [404]NO RETURN   MALESENMSEN1:00:51
49891 [652]NO CARD   FEMALESENFSEN1:00:54
49992 [652]VAN DER WESTHUIZENAMYCELTIC21FEMALESENFSEN1:00:54
50093 [652]DOLLIEMISHQAHTEMP30FEMALESENFSEN1:00:56
501179 [404]BADMINTONADRIANTEMP25MALESENMSEN1:01:01
502180 [404]BAILEYLESLEYTYGERBERG29MALESENMSEN1:01:03
50323 [90] ANWARITHEKO42MALE40M401:01:03
50440 [76]FLOWERSPEDROTEMP39MALE35M351:01:04
50514 [47]ALLIESAKEENDTEMP17FEMALEJUNFJUN1:01:04
50641 [71]SALIETHAAQIBARD15MALEJUNMJUN1:01:04
507181 [404]ANDREWSZAIDATEMP22MALESENMSEN1:01:08
50816 [114]WIGGINSTANIASANLAM39FEMALE35F351:01:09
50994 [652]NO CARD   FEMALESENFSEN1:01:10
510182 [404]WISBEACHDAVIDTEMP28MALESENMSEN1:01:11
51195 [652]GERMANYABIGAILEDGEMEAD23FEMALESENFSEN1:01:11
51296 [652]BASSONTAMSYNTEMP27FEMALESENFSEN1:01:12
51324 [90]TOEFYACHMATTEMP41MALE40M401:01:12
51497 [652]LOUWBLANCHESACS OBS32FEMALESENFSEN1:01:14
515183 [404]CHARLESYONIQTEMP22MALESENMSEN1:01:21
51642 [71]SALIEA QADIRARD18MALEJUNMJUN1:01:21
51725 [90]FERRISFARIEDTOP FORM42MALE40M401:01:24
51824 [74]CRONJELEONTEMP48MALE45M451:01:27
5196 [79]BEARDSWORTHKARENTEMP52FEMALE50F501:01:32
52020 [68]BEARDSWORTHLTEMP54MALE50M501:01:33
52143 [71]MUDDATHIR ARD15MALEJUNMJUN1:01:33
522184 [404]NO RETURN   MALESENMSEN1:01:35
52321 [68]VAN DIEMENVINCENTSPARTAN50MALE50M501:01:35
5248 [73]ZIREENA ITHEKO48FEMALE45F451:01:36
52598 [652]NO CARD   FEMALESENFSEN1:01:37
52699 [652]ADRIAANSLISATEMP27FEMALESENFSEN1:01:39
527185 [404]FORTUINDAMIANTEMP23MALESENMSEN1:01:41
528100 [652]STOBERNINABELLVILLE33FEMALESENFSEN1:01:42
52925 [74]MIZLANDAVID JTEMP49MALE45M451:01:43
530101 [652]BLANK CARD   FEMALESENFSEN1:01:43
531186 [404]HENDRICKSNIYAAZITHEKO29MALESENMSEN1:01:44
532187 [404]NO RETURN   MALESENMSEN1:01:45
53326 [90]KHANAMIRTEMP40MALE40M401:01:47
53441 [76]HOFMEYERZAAHIRTEMP37MALE35M351:01:47
535188 [404]NO RETURN   MALESENMSEN1:01:48
536102 [652]NO RETURN   FEMALESENFSEN1:01:51
537103 [652]NO CARD   FEMALESENFSEN1:01:55
538189 [404]NO CARD   MALESENMSEN1:01:55
53926 [74]VAN DER WESTHUIZENJACOTEMP48MALE45M451:01:57
540190 [404]MATTHEWSBEVANTEMP27MALESENMSEN1:01:57
541191 [404]COURTRICHARDTEMP33MALESENMSEN1:01:58
54244 [71]BOREZSUHAILTEMP14MALEJUNMJUN1:02:02
54327 [74]MOGAMAD TEMP45MALE45M451:02:03
544192 [404]NO RETURN   MALESENMSEN1:02:04
54510 [120]JOUBERTMILANDIDURBAC40FEMALE40F401:02:05
54622 [68]WATSONMARKTEMP54MALE50M501:02:07
54723 [68]ABRAHAMSYAASIENTEMP50MALE50M501:02:07
548104 [652]GULWAANITARCS GUGS26FEMALESENFSEN1:02:07
549105 [652]SAMAAIZAHRAATOP FORM21FEMALESENFSEN1:02:08
5508 [55]WATSONJUDYTEMP57FEMALE55F551:02:08
551106 [652]HENKELPAULTEMP26FEMALESENFSEN1:02:09
552107 [652]KERRTAMMYTEMP30FEMALESENFSEN1:02:09
553108 [652]NO CARD   FEMALESENFSEN1:02:10
55417 [114]MOCUMIEVELINETEMP35FEMALE35F351:02:10
555109 [652]MCDOWELLSARAHCENTURY CITY22FEMALESENFSEN1:02:12
556193 [404]LE ROUXGERHARDTEMP MALESENMSEN1:02:15
557194 [404]NO CARD   MALESENMSEN1:02:15
558195 [404]RUSSELLTRAVISTEMP25MALESENMSEN1:02:17
559110 [652]LITTLETANYATEMP33FEMALESENFSEN1:02:18
56027 [90]DOULIERASHIEDOMMIEDRAAI42MALE40M401:02:20
561196 [404]MARTINSALEHKENFAC34MALESENMSEN1:02:21
56224 [68]SOMINLCORR SERVICES WP52MALE50M501:02:21
56311 [120]VERMAAKVERONIQUESPARTAN44FEMALE40F401:02:22
56415 [47]WELGEMOEDTASCHESTRAND16FEMALEJUNFJUN1:02:24
56518 [114]VAN ZYLLIESELTEMP37FEMALE35F351:02:27
566197 [404]KISTICMILOSTEMP29MALESENMSEN1:02:29
56728 [90]MANGANZISPARLIAMENT MALE40M401:02:30
5687 [79]BISCHOFFTHERESEHOUT BAY53FEMALE50F501:02:34
56942 [76]NORMANDUANETEMP35MALE35M351:02:35
57012 [120]BUDHRAMLIZLTEMP44FEMALE40F401:02:36
571111 [652]NO CARD   FEMALESENFSEN1:02:42
57219 [114]SIHLELERATORCS GUGS37FEMALE35F351:02:47
5739 [55]VAN OUDTSHOORNESTELLEK-WAY VOB56FEMALE55F551:02:47
57445 [71]SHIRAUZAYRARD18MALEJUNMJUN1:02:51
57543 [76]BORTZASHRAFARD39MALE35M351:02:52
576112 [652]ZWANELORATOTEMP34FEMALESENFSEN1:02:56
57728 [74]PRETORIUSRASSIESANLAM48MALE45M451:02:56
57829 [74]GELDENHUYSGERRITSANLAM45MALE45M451:02:58
579198 [404]HENDRICKSAMJADAURECON32MALESENMSEN1:03:00
580199 [404]NO CARD   MALESENMSEN1:03:00
58114 [40]HUNTERDAVIDPINELANDS58MALE55M551:03:02
58229 [90]MTHALRBTEMP MALE40M401:03:05
583113 [652]MISPLONJADETEMP27FEMALESENFSEN1:03:07
584114 [652] MELISSATEMP27FEMALESENFSEN1:03:08
585115 [652]NO CARD   FEMALESENFSEN1:03:09
586200 [404]NO RETURN   MALESENMSEN1:03:11
587201 [404]NO RETURN   MALESENMSEN1:03:13
588116 [652]NO RETURN   FEMALESENFSEN1:03:15
589117 [652]BILLETTMICHAELLATEMP FEMALESENFSEN1:03:16
590118 [652]O'BRIENSHANNONMATIES20FEMALESENFSEN1:03:18
5918 [79]ROEBERTMAROOTTEMP54FEMALE50F501:03:19
592202 [404]DOLLIEISMA-EELTEMP30MALESENMSEN1:03:20
593203 [404]CHIPPENDALETHEODORESANDF WP33MALESENMSEN1:03:22
59416 [47]ISMAILNABEELAHITHEKO19FEMALEJUNFJUN1:03:23
59525 [68]SHAMIELSHIRAMOGAMATARD51MALE50M501:03:24
59620 [114]HINDLEYJESSICAHOUT BAY38FEMALE35F351:03:25
597204 [404]MCINERNEYMICHAELTEMP28MALESENMSEN1:03:27
59830 [90]COLMANPAULTEMP MALE40M401:03:29
599119 [652]MULLERROBYNNETEMP27FEMALESENFSEN1:03:30
60044 [76]RICHARDSONJASONRCS GUGS37MALE35M351:03:33
60121 [114]TOPLISSJEANNETEMP39FEMALE35F351:03:36
60231 [90]BLANK CARD   MALE40M401:03:37
603205 [404]NO RETURN   MALESENMSEN1:03:39
60422 [114]KOLBEBERNADETTETEMP38FEMALE35F351:03:39
605120 [652]NO CARD   FEMALESENFSEN1:03:41
60615 [40]OSMANMNTEMP57MALE55M551:03:43
607206 [404]NO CARD   MALESENMSEN1:03:43
60810 [55]PEITERSEHANRITEMP56FEMALE55F551:03:46
609121 [652]THERONEDENTEMP24FEMALESENFSEN1:03:47
610122 [652]NO RETURN   FEMALESENFSEN1:03:49
611123 [652]BARNARDNADIABORN 2 RUN28FEMALESENFSEN1:03:50
612207 [404]MATTHEWSCLEMENTNANTES31MALESENMSEN1:03:51
613124 [652]SWARTSJAMIENANTES33FEMALESENFSEN1:03:53
61423 [114]GALVAANSHIEHAAMTEMP36FEMALE35F351:03:54
615125 [652]KINGAGATHADURBAC33FEMALESENFSEN1:03:55
616126 [652]GEYSERADELETEMP33FEMALESENFSEN1:03:58
617208 [404]NO RETURN   MALESENMSEN1:03:58
618127 [652]NO RETURN   FEMALESENFSEN1:03:58
6199 [73]RUFFELSJEANNINERUN WALK 4 LIFE47FEMALE45F451:03:59
62013 [120]JAPPIEMIRIAMOMMIEDRAAI41FEMALE40F401:03:59
62132 [90]JAPPIERIAAZOMMIEDRAAI42MALE40M401:03:59
62214 [120]LEELATIEFATEMP44FEMALE40F401:04:02
623128 [652]CHISEYASAMBATEMP31FEMALESENFSEN1:04:03
624129 [652]WIGGILLMARY-ANNTEMP24FEMALESENFSEN1:04:04
62546 [71] EMMANUELTEMP13MALEJUNMJUN1:04:05
626209 [404]NO RETURN K-WAY VOB MALESENMSEN1:04:06
627130 [652]MARTINSHARONTEMP33FEMALESENFSEN1:04:08
628131 [652]ROBSONCATHERINEAAC31FEMALESENFSEN1:04:09
6299 [79]PANDITRTEMP FEMALE50F501:04:11
630132 [652]NO RETURN   FEMALESENFSEN1:04:12
63145 [76]WESTHOWARDTEMP37MALE35M351:04:14
63224 [114]DIXONMATHILDATEMP38FEMALE35F351:04:16
63310 [73]SMALELIZABETHRAVENSMEAD48FEMALE45F451:04:16
634133 [652]NO CARD   FEMALESENFSEN1:04:18
6356 [28]BRITZLIZWEST COAST64FEMALE60F601:04:19
636134 [652]NO RETURN WEST COAST FEMALESENFSEN1:04:20
637135 [652]NO RETURN   FEMALESENFSEN1:04:21
638136 [652]MOSEASHLENECELTIC29FEMALESENFSEN1:04:24
63947 [71]LOURENSREINHARDTTEMP18MALEJUNMJUN1:04:26
64030 [74] RANDALLTEMP45MALE45M451:04:26
6417 [28]VAN WYKJEANETTETYGERBERG61FEMALE60F601:04:28
64231 [74]ABRAHAMSABUTOP FORM48MALE45M451:04:31
64346 [76]MCALLISTERGRAHAMTEMP37MALE35M351:04:31
64426 [68]SPENCERANDREWTEMP51MALE50M501:04:32
645210 [404]DLADLAZANELESANDF WP29MALESENMSEN1:04:38
64610 [79]KELINSCHMIDTDESIREEMP TITANS50FEMALE50F501:04:40
64727 [68]PORTHERNDEONHEWAT51MALE50M501:04:41
648137 [652]NO CARD   FEMALESENFSEN1:04:42
649138 [652]VAN NIEKERKCHENERUN WALK 4 LIFE26FEMALESENFSEN1:04:43
650139 [652]NO RETURN   FEMALESENFSEN1:04:45
651140 [652]NO CARD   FEMALESENFSEN1:04:46
652211 [404]NO CARD   MALESENMSEN1:04:47
653141 [652]EMERTONNIKKITEMP31FEMALESENFSEN1:04:48
654142 [652]NO CARD   FEMALESENFSEN1:04:50
655143 [652]NO CARD   FEMALESENFSEN1:04:52
656212 [404]NO CARD   MALESENMSEN1:04:53
657144 [652]NO CARD   FEMALESENFSEN1:04:54
658145 [652]JOOSTEANKERUN WALK 4 LIFE26FEMALESENFSEN1:04:55
659146 [652]NO CARD   FEMALESENFSEN1:04:56
660147 [652]NO CARD   FEMALESENFSEN1:04:58
661148 [652]DAVISABIGAILTEMP32FEMALESENFSEN1:04:59
66232 [74]GAMIETYASIENTEMP48MALE45M451:05:00
663213 [404]NO CARD   MALESENMSEN1:05:01
664149 [652]NEOKOPORTIANANTES26FEMALESENFSEN1:05:02
66511 [55]SNYMANTPICK 'n PAY59FEMALE55F551:05:04
66648 [71]HEIRDCRAIGTEMP18MALEJUNMJUN1:05:05
667150 [652]HAIRDNICOLETEMP FEMALESENFSEN1:05:08
66815 [120]WENTWORTHMELANIESPARTAN43FEMALE40F401:05:10
66925 [114]MONTAGU-FRYERKARENATC39FEMALE35F351:05:12
670214 [404] ROYTEMP27MALESENMSEN1:05:13
671151 [652]HANNINGTONELANATEMP FEMALESENFSEN1:05:15
672152 [652]MARAISMARIKETEMP24FEMALESENFSEN1:05:16
673153 [652]NO CARD   FEMALESENFSEN1:05:16
67433 [74]RINQUESTNIGELCELTIC45MALE45M451:05:17
67533 [90]WILLIAMSMOGAMATSANLAM40MALE40M401:05:18
67611 [79]STUURMANMICHELESANLAM50FEMALE50F501:05:19
67734 [74]NAIDOORAJINSTRAGGLERS49MALE45M451:05:20
678154 [652]NEETHLINGJOLANDITEMP21FEMALESENFSEN1:05:22
679155 [652]MORKELMEGANTEMP20FEMALESENFSEN1:05:23
680215 [404] GEORGETEMP23MALESENMSEN1:05:24
68126 [114]AIBOOMEESHATEMP37FEMALE35F351:05:24
682216 [404]MACKAYSTEWARTATC32MALESENMSEN1:05:25
68327 [114]NIESEDANIEATEMP35FEMALE35F351:05:28
68434 [90]TOEFYSHADLEYTEMP40MALE40M401:05:29
68535 [90]JASSIEMTAYBTEMP41MALE40M401:05:30
6861 [12]MOOLENSCHOTPETRAPICK 'n PAY66FEMALE65F651:05:31
687217 [404]NYARASHELUYUYOTEMP32MALESENMSEN1:05:32
688156 [652]BEZUIDENHOUTJACKIEAAC30FEMALESENFSEN1:05:33
68916 [40]COLLERBERNARDRCS GUGS57MALE55M551:05:35
690218 [404] WESLEYTEMP28MALESENMSEN1:05:36
691219 [404]VAN DER SCHYFFJOELTEMP29MALESENMSEN1:05:37
69228 [68]SMITMARKWEST COAST50MALE50M501:05:38
693220 [404]WILLIAMSRAVAANTEMP33MALESENMSEN1:05:39
69416 [120]BROPHYERICAK-WAY VOB FEMALE40F401:05:40
695157 [652]NO RETURN   FEMALESENFSEN1:05:41
69635 [74]MACFARLANEBRUCETEMP46MALE45M451:05:42
69717 [120]VERMAASJENNIEDGEMEAD44FEMALE40F401:05:43
69836 [90]CRONJEROBERTTYGERBERG41MALE40M401:05:44
699221 [404]NO RETURN   MALESENMSEN1:05:45
70037 [90] TERENCENANTES41MALE40M401:05:46
70147 [76]NONCUNGUXTTEMP38MALE35M351:05:47
70218 [120]ALEXIOUEVEYRCS GUGS40FEMALE40F401:05:49
70317 [47]BLANK CARD   FEMALEJUNFJUN1:05:50
70436 [74]BONWELL RCS GUGS47MALE45M451:05:51
70519 [120]GOVENDERHERZELARD FEMALE40F401:05:53
706222 [404]ABRAHAMSSHERAANITHEKO34MALESENMSEN1:05:54
70748 [76]ROSSOUWMORNETEMP37MALE35M351:05:55
708223 [404]WINFIELDNICWEST COAST33MALESENMSEN1:05:55
7091 [3]HILLLIONELCERES73MALE70M701:05:56
710158 [652]BARKHUIZENHELMIENBELLVILLE FEMALESENFSEN1:05:57
711159 [652]JACKSONCARATEMP26FEMALESENFSEN1:06:00
712160 [652]NO CARD   FEMALESENFSEN1:06:01
713161 [652]NO CARD   FEMALESENFSEN1:06:01
71449 [76]NICHOLLSRUZLOETEMP37MALE35M351:06:02
715224 [404]NO CARD   MALESENMSEN1:06:02
716162 [652]JOLLYLINDSAYCELTIC25FEMALESENFSEN1:06:04
71720 [120]TICKNERMICHELLEPINELANDS43FEMALE40F401:06:06
718163 [652]ISHMAILRAMEEZTEMP34FEMALESENFSEN1:06:06
719164 [652]KIRKWOODNATALIETEMP24FEMALESENFSEN1:06:08
720165 [652]BLANK CARD   FEMALESENFSEN1:06:10
721166 [652]NO CARD   FEMALESENFSEN1:06:11
722167 [652]NO CARD   FEMALESENFSEN1:06:12
723168 [652]NO CARD   FEMALESENFSEN1:06:14
724169 [652]WRIGHTSIOPHANTEMP26FEMALESENFSEN1:06:15
725170 [652]DOIDGETARYNTEMP30FEMALESENFSEN1:06:18
72629 [68]TAMBOERATEMP MALE50M501:06:18
72738 [90]OFFICEMELVYNTEMP42MALE40M401:06:18
7285 [9]ARNOLDHASSIEMTOP FORM67MALE65M651:06:19
72911 [73]JONESBECKYSATORI48FEMALE45F451:06:20
730225 [404]HAMMONDMARTINTEMP32MALESENMSEN1:06:21
73150 [76]VENTERDEONDURBAC37MALE35M351:06:22
73239 [90]LEENCALVINPINELANDS41MALE40M401:06:23
73328 [114]MILLSCLAUDIAAAC35FEMALE35F351:06:24
734171 [652]NO RETURN   FEMALESENFSEN1:06:25
73530 [68]HOWARDGEOFFTEMP50MALE50M501:06:26
736226 [404]NO RETURN   MALESENMSEN1:06:27
737227 [404] TASNEEMITHEKO29MALESENMSEN1:06:28
738172 [652]COSTALAURENTEMP30FEMALESENFSEN1:06:29
739173 [652]NO RETURN   FEMALESENFSEN1:06:30
74021 [120] SHANAAZRCS GUGS FEMALE40F401:06:31
74112 [55]RYKLIEFAKENFAC55FEMALE55F551:06:32
74251 [76]FIERDIENFAGRITEMP36MALE35M351:06:34
74349 [71]MADATTRIDHAATEMP17MALEJUNMJUN1:06:36
744174 [652]NO CARD   FEMALESENFSEN1:06:36
745175 [652]MADDYAPHIWETEMP32FEMALESENFSEN1:06:36
74629 [114]VAN ZYLCHANTELLEK-WAY VOB39FEMALE35F351:06:37
74737 [74]JANSENDIETERRUN WALK 4 LIFE48MALE45M451:06:37
74838 [74]FISHERMHTEMP46MALE45M451:06:37
749176 [652]NO CARD   FEMALESENFSEN1:06:38
75012 [73]MINTYREYHANAOMMIEDRAAI45FEMALE45F451:06:40
751228 [404]KIRSTENDAIYAANTEMP19MALESENMSEN1:06:41
752229 [404]NO CARD   MALESENMSEN1:06:41
753177 [652]NO CARD   FEMALESENFSEN1:06:42
75440 [90]STEMMETWALEEDOMMIEDRAAI42MALE40M401:06:43
75541 [90]DAVIDSEZZATTOP FORM43MALE40M401:06:43
75639 [74]JACOBSBOEBIEK-WAY VOB48MALE45M451:06:43
75712 [79]ARENDSERINALDASPARTAN52FEMALE50F501:06:45
75840 [74]MAREEJONATHANEASTERNS46MALE45M451:06:46
759230 [404]NO RETURN   MALESENMSEN1:06:47
76013 [73]PATERSONJODYTEMP45FEMALE45F451:06:49
761178 [652]NO RETURN   FEMALESENFSEN1:06:50
762179 [652]LOUWNATALIEAAC22FEMALESENFSEN1:06:51
763180 [652]HAYAARDLIVITEMP24FEMALESENFSEN1:06:52
76430 [114]SWARTTANYABRACKENFELL37FEMALE35F351:06:53
7658 [25]NELPBRACKENFELL63MALE60M601:06:54
7668 [28]SAYEED OSMANMOHAMEDTOP FORM63FEMALE60F601:06:55
76742 [90]SCHATKEJENAAC41MALE40M401:06:56
768181 [652]NO RETURN   FEMALESENFSEN1:06:57
76931 [114]DANIELSWARDAHTEMP37FEMALE35F351:06:57
77043 [90]ENOSSULAIMANITHEKO41MALE40M401:06:58
771182 [652]TETLOWSARAHK-WAY VOB20FEMALESENFSEN1:06:59
77218 [47]MOHAMEDMISHKAHCENTRAL AC18FEMALEJUNFJUN1:07:01
773183 [652]NO CARD   FEMALESENFSEN1:07:02
774184 [652]CROMBIEFERIALTEMP31FEMALESENFSEN1:07:02
775185 [652]MEYERYOEMNAARD32FEMALESENFSEN1:07:03
776231 [404]DOLLIEMUJAHIDTEMP24MALESENMSEN1:07:03
777232 [404]RIVAMICHEALTEMP MALESENMSEN1:07:04
77850 [71]GASANTTAWFEEQOMMIEDRAAI17MALEJUNMJUN1:07:05
77944 [90]ABDULLAHALLIETOP FORM40MALE40M401:07:06
780186 [652]HUISAMENLYDIASANLAM30FEMALESENFSEN1:07:06
781233 [404]MOALOSINTHETESANDF WP27MALESENMSEN1:07:07
782234 [404]NO CARD   MALESENMSEN1:07:07
783235 [404]MPUVGAFREDERICKTEMP MALESENMSEN1:07:08
78431 [68]BLOMANDREFISH HOEK51MALE50M501:07:09
785236 [404]HERCULESSHADLEYTEMP31MALESENMSEN1:07:11
786237 [404]ALCOCKDANIELTEMP27MALESENMSEN1:07:11
78751 [71]STEGMANNM THAABITARD18MALEJUNMJUN1:07:12
78852 [71]MYBURGHISMA'ILTEMP14MALEJUNMJUN1:07:16
789187 [652]HENDRICKSAESHATOP FORM32FEMALESENFSEN1:07:16
790188 [652]NO RETURN   FEMALESENFSEN1:07:16
79132 [114]COCULESCUMARGARUN WALK 4 LIFE39FEMALE35F351:07:16
79213 [55]HIGGINSSHARIFATOP FORM55FEMALE55F551:07:17
793189 [652]HARRISOLGATEMP23FEMALESENFSEN1:07:18
79419 [47]HOFFMANALEXANDRASTRAND FEMALEJUNFJUN1:07:18
79522 [120]HOFFMANCHANELLESTRAND43FEMALE40F401:07:19
796238 [404]BLANK CARD   MALESENMSEN1:07:21
79732 [68]PILLAYWINSTONOMMIEDRAAI50MALE50M501:07:21
798239 [404]NO CARD   MALESENMSEN1:07:22
799190 [652]NO CARD   FEMALESENFSEN1:07:22
80045 [90]MAYYARD40MALE40M401:07:23
80123 [120]CHRISTIEZAHIDATEMP40FEMALE40F401:07:24
80233 [114]WILSONFRANCESTEMP38FEMALE35F351:07:24
80341 [74]HUBERTDEFERTTEMP48MALE45M451:07:26
80446 [90]PHILIPBOYTEMP43MALE40M401:07:26
80513 [79]BRYANTSANDRATEMP FEMALE50F501:07:27
80642 [74]PLANASRICARALTEMP47MALE45M451:07:29
807191 [652]VASQUEZALEXTEMP31FEMALESENFSEN1:07:29
80852 [76]FRITZHENRYTYGERBERG37MALE35M351:07:29
809192 [652]NO CARD   FEMALESENFSEN1:07:31
81014 [55]STRONGJENNYK-WAY VOB57FEMALE55F551:07:32
81124 [120]CLIFFORDDEBORAHWILD RUNNER40FEMALE40F401:07:32
812193 [652]NO CARD   FEMALESENFSEN1:07:32
81343 [74]JANSONKEITHK-WAY VOB47MALE45M451:07:33
814194 [652]NO RETURN   FEMALESENFSEN1:07:34
815240 [404]NO RETURN   MALESENMSEN1:07:35
81653 [76]EVERTSREAGANBELLVILLE35MALE35M351:07:36
81744 [74]MITCHELLGRAHAMCELTIC46MALE45M451:07:37
818241 [404]ABRAHAMSTAARIQTEMP25MALESENMSEN1:07:38
819242 [404]NO RETURN   MALESENMSEN1:07:38
820195 [652]NO RETURN   FEMALESENFSEN1:07:40
82125 [120]FINLAYSONBELINDATEMP43FEMALE40F401:07:42
822196 [652]NO CARD   FEMALESENFSEN1:07:43
82347 [90]BLANK CARD   MALE40M401:07:44
82426 [120]CILLIERSJENNIFERTEMP44FEMALE40F401:07:44
825197 [652]MOSAVELHAAJIERAHTOP FORM24FEMALESENFSEN1:07:45
82645 [74]FINLAYSONPAULTEMP46MALE45M451:07:46
827198 [652]NO RETURN   FEMALESENFSEN1:07:47
828199 [652]MORRISLARATEMP32FEMALESENFSEN1:07:48
829200 [652]BOSCHMANSMELISSA-ANNETEMP25FEMALESENFSEN1:07:49
830201 [652]FLETCHERMAXINETEMP25FEMALESENFSEN1:07:50
831202 [652]KASSENDRAGERDOMINIQUETEMP31FEMALESENFSEN1:07:50
83234 [114] LYNADVENTISTS AC35FEMALE35F351:07:51
833243 [404]DOMINGOTHAABIETOMMIEDRAAI31MALESENMSEN1:07:52
83414 [79]WARDDEBRAEDGEMEAD51FEMALE50F501:07:53
835203 [652]RHODANICOLETEMP25FEMALESENFSEN1:07:53
836204 [652]BRITSLEANNETEMP25FEMALESENFSEN1:07:53
83748 [90]RABINSIRAAJTEMP41MALE40M401:07:54
8389 [25]SMITMARIEBRACKENFELL63MALE60M601:07:55
839244 [404]NO CARD   MALESENMSEN1:07:56
840245 [404]BLANK CARD   MALESENMSEN1:07:58
841205 [652]NO RETURN   FEMALESENFSEN1:07:58
842206 [652]NO RETURN   FEMALESENFSEN1:07:59
843246 [404]MARTINKASHIEFTEMP30MALESENMSEN1:08:00
844207 [652]PETERSKELLY-JAYNEAAC25FEMALESENFSEN1:08:00
845208 [652]NO CARD   FEMALESENFSEN1:08:01
84635 [114]BURGMICHAWEST COAST37FEMALE35F351:08:01
84749 [90]LOUWWAYNEBELLVILLE42MALE40M401:08:01
848209 [652]NO CARD   FEMALESENFSEN1:08:02
8499 [28]STRELITZJILLOLD MUTUAL64FEMALE60F601:08:02
85036 [114]PRINSLOTRACYCAPE MULTISPORT38FEMALE35F351:08:03
851210 [652]FARMERCRYSTALDURBAC24FEMALESENFSEN1:08:03
852247 [404]BUITENDAGSVENTEMP23MALESENMSEN1:08:03
85327 [120]SMIDTHEIDISPARTAN43FEMALE40F401:08:04
85428 [120]SASMANANASTASIASPARTAN43FEMALE40F401:08:06
855211 [652]NO CARD   FEMALESENFSEN1:08:07
856212 [652]JACOBSILHAAMITHEKO32FEMALESENFSEN1:08:07
857213 [652]SWEIDANLORENTEMP29FEMALESENFSEN1:08:07
858214 [652]NO CARD   FEMALESENFSEN1:08:08
859215 [652]BENJAMINGANEEFAARD25FEMALESENFSEN1:08:08
86050 [90]ALLYAKHTARTEMP44MALE40M401:08:08
86114 [73]MCQUEENHAZELAAC47FEMALE45F451:08:09
862216 [652]MARCHANTLISA-JANETEMP24FEMALESENFSEN1:08:09
86353 [71]JOHNSONMUAMRCENTRAL AC16MALEJUNMJUN1:08:09
86429 [120]ORRIEKARIEMAARD FEMALE40F401:08:10
865217 [652]NO RETURN   FEMALESENFSEN1:08:10
866248 [404]NO RETURN   MALESENMSEN1:08:11
867218 [652]NO RETURN   FEMALESENFSEN1:08:11
86846 [74]FARNSWORTHJONTEMP47MALE45M451:08:12
86917 [40]NAARMANABETEMP57MALE55M551:08:12
87033 [68]NIEMANNPIETERTEMP50MALE50M501:08:13
87151 [90]NAIDOOJERRYCORR SERVICES WP43MALE40M401:08:14
87252 [90]VAN DER REDEROBINTEMP44MALE40M401:08:16
873249 [404]GOWANSJAMESTEMP23MALESENMSEN1:08:16
87415 [55]WEBBSARAHOLD MUTUAL56FEMALE55F551:08:16
87537 [114]VAN RENSBURGILZEPINELANDS39FEMALE35F351:08:17
876219 [652]NO RETURN   FEMALESENFSEN1:08:19
877220 [652]AJAMRIEZQAHCENTRAL AC29FEMALESENFSEN1:08:20
87854 [76]ABADERRIFQUAHTEMP38MALE35M351:08:22
879250 [404]BENJAMINHISHAAMTEMP33MALESENMSEN1:08:22
880221 [652]HAYNGERNABRACKENFELL FEMALESENFSEN1:08:23
88118 [40]HARGEYRASHEEDCELTIC58MALE55M551:08:24
882251 [404]NO CARD   MALESENMSEN1:08:25
88310 [25]ADAMSZAIDOMMIEDRAAI MALE60M601:08:25
884252 [404]MUHAMMADALINANTES MALESENMSEN1:08:26
88553 [90]BLANK CARD   MALE40M401:08:28
886222 [652]NO CARD   FEMALESENFSEN1:08:28
88715 [73]DE ROOCKKARENSANLAM48FEMALE45F451:08:30
888223 [652]MESTOPHAWAGEEDANANTES29FEMALESENFSEN1:08:31
88938 [114]ALEXANDERTASNEEMNANTES39FEMALE35F351:08:32
89054 [71]LEWISMIEKAEELTEMP18MALEJUNMJUN1:08:34
891224 [652]CAREWJOANNETEMP27FEMALESENFSEN1:08:35
892225 [652]NO RETURN   FEMALESENFSEN1:08:36
893226 [652]MOHAMEDANIKAHTEMP26FEMALESENFSEN1:08:36
894227 [652]AKIEKERISHRATTEMP23FEMALESENFSEN1:08:38
895228 [652]NO CARD   FEMALESENFSEN1:08:39
8966 [9]OXCHELESLIETEMP69MALE65M651:08:41
897253 [404]NO CARD   MALESENMSEN1:08:42
89816 [73]MILESLEANNETEMP47FEMALE45F451:08:44
89947 [74]MILESTERRYTEMP49MALE45M451:08:47
900229 [652]SOLOMONLESLEY-ANNNANTES26FEMALESENFSEN1:08:57
90115 [79]ROSSOUWSTELLATEMP50FEMALE50F501:09:07
902254 [404]DUBESIHLEPARLIAMENT33MALESENMSEN1:09:08
90320 [47]BRUINERSMEGANMETROPOLITAN16FEMALEJUNFJUN1:09:10
90439 [114]SWARTZBRONWYNTEMP37FEMALE35F351:09:21
90534 [68]RACIETFALDIECENTRAL AC51MALE50M501:09:22
90630 [120]THOMASMICHELLETEMP FEMALE40F401:09:42
907255 [404]FRITZGERSHWINSANDF WP23MALESENMSEN1:10:00
9082 [12]KAVANAGHCYNTHIAEDGEMEAD65FEMALE65F651:10:02
90931 [120]PITTCATHERINEFISH HOEK40FEMALE40F401:10:04
91019 [40]BERGERSIMONTEMP55MALE55M551:10:05
911256 [404]NO RETURN   MALESENMSEN1:10:06
912230 [652]SALIESHANAASCENTRAL AC FEMALESENFSEN1:10:08
913231 [652]HOOLEFARAHKENFAC27FEMALESENFSEN1:10:10
914257 [404]WASEEM TEMP32MALESENMSEN1:10:11
915258 [404]SONDAYIGHLAAKSANLAM33MALESENMSEN1:10:13
91620 [40]MOLTIABOEBAKARARD55MALE55M551:10:15
917259 [404]NO RETURN   MALESENMSEN1:10:18
918260 [404]LUCKANANWATEMP MALESENMSEN1:10:19
919232 [652]NO CARD   FEMALESENFSEN1:10:21
92040 [114]LE ROUXREGINEHOUT BAY38FEMALE35F351:10:28
92135 [68]PATRICKRICHARDTEMP53MALE50M501:10:31
922233 [652]NO RETURN   FEMALESENFSEN1:10:35
92355 [76]ADAMSMUJAHIDKENFAC39MALE35M351:10:37
92410 [28]HOPESHILDEGARDESANLAM61FEMALE60F601:10:37
92517 [73]STEWARDCHANTALMELKBOS45FEMALE45F451:10:39
92618 [73]ATKINSLISATEMP45FEMALE45F451:10:40
927234 [652]PAVLOUTONIACARBINEERS WP31FEMALESENFSEN1:10:41
928235 [652]NO RETURN   FEMALESENFSEN1:10:42
929236 [652]NO CARD   FEMALESENFSEN1:10:44
930237 [652]NO RETURN   FEMALESENFSEN1:10:48
93136 [68]BLANK CARD   MALE50M501:10:48
932238 [652]LIGHTFOOTSTACEYTEMP26FEMALESENFSEN1:10:49
933261 [404]BRIGHTONROBINTEMP28MALESENMSEN1:10:49
93448 [74]ENGELBRECHTCSAPS WP49MALE45M451:10:51
935239 [652]NO RETURN   FEMALESENFSEN1:10:52
936240 [652]FOURIEHELANYATEMP29FEMALESENFSEN1:10:53
937241 [652]VAN NOORTCECILETEMP28FEMALESENFSEN1:10:56
938242 [652]PAYIZANDILETEMP FEMALESENFSEN1:10:56
939262 [404]NO CARD   MALESENMSEN1:10:57
940263 [404]HENDRICKSDANYALTEMP34MALESENMSEN1:10:58
94132 [120]ARENDSESHAFEEKATEMP43FEMALE40F401:11:00
94254 [90]ABDURAHMANWALEEDTEMP44MALE40M401:11:00
94349 [74]MANUELISGAKTEMP45MALE45M451:11:01
94441 [114]ADAMSSHANAAZTEMP38FEMALE35F351:11:02
94511 [25]STEWARDROGERAAC63MALE60M601:11:03
94611 [28]DAVISONNORMARUN WALK 4 LIFE61FEMALE60F601:11:04
947243 [652]CHIPPENDALENATALIEPICK 'n PAY33FEMALESENFSEN1:11:06
94842 [114]OOSTHUISENROCHELLETEMP38FEMALE35F351:11:06
949244 [652]NO CARD   FEMALESENFSEN1:11:07
950264 [404] JACQUESSANLAM24MALESENMSEN1:11:08
951265 [404]NO CARD   MALESENMSEN1:11:09
95256 [76]GOVENDERDESIGANTEMP37MALE35M351:11:11
95319 [73]DE NOBREGAEMMARUN WALK 4 LIFE47FEMALE45F451:11:12
95420 [73]BARRETTGRUN WALK 4 LIFE46FEMALE45F451:11:13
955266 [404]KENTWARRENTEMP29MALESENMSEN1:11:14
956245 [652]STANTONCANDICETEMP27FEMALESENFSEN1:11:14
95743 [114]BASSARDIENRAGIEMAARD39FEMALE35F351:11:15
95812 [28]THEYSSIDONIATYGERBERG62FEMALE60F601:11:15
95912 [25]DAVIDSERROLTYGERBERG60MALE60M601:11:15
96050 [74]POLEMANCEDRICCENTURY CITY45MALE45M451:11:16
961267 [404]NO CARD CENTURY CITY MALESENMSEN1:11:17
96251 [74]VAULEISMAILCENTRAL AC45MALE45M451:11:18
9633 [12]BLOMKAMPYVONNEK-WAY VOB65FEMALE65F651:11:19
964246 [652]NO RETURN   FEMALESENFSEN1:11:25
96537 [68]BELLASHLEYESKOM MALE50M501:11:26
96621 [47]FERRISLAA'IQAHRCS GUGS14FEMALEJUNFJUN1:11:27
96716 [79]THOMPSONLINDATEMP53FEMALE50F501:11:29
968247 [652]NO RETURN K-WAY VOB FEMALESENFSEN1:11:30
969248 [652]CLAASENMEAGANTEMP24FEMALESENFSEN1:11:32
970249 [652]NO RETURN   FEMALESENFSEN1:11:33
971250 [652]NO RETURN   FEMALESENFSEN1:11:34
972251 [652]VAN WALFFTON PALTHEMARIONTEMP30FEMALESENFSEN1:11:35
973252 [652]NORTJEKIRSTYTEMP FEMALESENFSEN1:11:37
97416 [55]VAN ZYLESTELLESTRAND56FEMALE55F551:11:38
97557 [76]SOLOMONGHALIBARD39MALE35M351:11:41
976253 [652]SAFODIENMUSHFIQATEMP26FEMALESENFSEN1:11:41
977268 [404]PANDEYZAKAREEYATEMP25MALESENMSEN1:11:41
978269 [404]NO CARD   MALESENMSEN1:11:42
979254 [652]NO CARD   FEMALESENFSEN1:11:43
980270 [404]BLANK CARD   MALESENMSEN1:11:44
981255 [652]NO CARD   FEMALESENFSEN1:11:45
98221 [73]RAILOUNFAIZATOP FORM49FEMALE45F451:11:45
98344 [114]ROBERTSONFTEMP38FEMALE35F351:11:47
98417 [79]ENGELBRECHTAGOODWOOD50FEMALE50F501:11:48
98522 [73]LETCHERFRUN WALK 4 LIFE46FEMALE45F451:11:49
98623 [73]HEIDMANNBELINDAK-WAY VOB45FEMALE45F451:11:50
98722 [47]HEIDMANNEMMAK-WAY VOB18FEMALEJUNFJUN1:11:51
98845 [114]HOOSENFATIMATEMP37FEMALE35F351:11:52
989271 [404]AHMEDABEDTEMP33MALESENMSEN1:11:53
99046 [114]BOYDERNIESPARTAN38FEMALE35F351:11:56
99158 [76]BOYDLIEZLTEMP39MALE35M351:11:57
99224 [73]SAMPSONMICHELLESPARTAN48FEMALE45F451:11:58
99318 [79]ELKINSHERRYLBRACKENFELL50FEMALE50F501:12:01
994256 [652]NO CARD   FEMALESENFSEN1:12:01
99552 [74]DSHAFIEKCENTRAL AC49MALE45M451:12:07
996272 [404]NO RETURN   MALESENMSEN1:12:09
99755 [71]JAKOETEBRAHIMTEMP15MALEJUNMJUN1:12:10
99856 [71]JAKOETGANIEFTEMP15MALEJUNMJUN1:12:11
99925 [73]KELLYSTEMP45FEMALE45F451:12:12
1000257 [652]GALANTRAFEEQAHTEMP28FEMALESENFSEN1:12:13
100119 [79]GALANTSHIREENITHEKO54FEMALE50F501:12:15
1002258 [652]NO RETURN   FEMALESENFSEN1:12:15
100333 [120]HENDRICKSRUWAYDATEMP42FEMALE40F401:12:17
1004273 [404]MAVUSOSIMFANELETEMP19MALESENMSEN1:12:18
1005259 [652]MIDDLETONTAMARYNWILD RUNNER31FEMALESENFSEN1:12:20
1006274 [404]NO RETURN   MALESENMSEN1:12:22
100755 [90] LAWRENCETEMP43MALE40M401:12:23
1008260 [652]NO CARD   FEMALESENFSEN1:12:24
1009261 [652]NO CARD   FEMALESENFSEN1:12:25
1010262 [652]NO CARD   FEMALESENFSEN1:12:26
1011263 [652]ADAMSWASEEMAARD30FEMALESENFSEN1:12:27
1012275 [404]MAGANRIKESHTEMP MALESENMSEN1:12:28
101323 [47]BASSIERLAEEQAWALMERS AC18FEMALEJUNFJUN1:12:28
1014264 [652]NO CARD   FEMALESENFSEN1:12:29
1015276 [404]NO RETURN   MALESENMSEN1:12:30
1016265 [652]NO CARD   FEMALESENFSEN1:12:31
101756 [90]RUSHA MATES43MALE40M401:12:32
101824 [47]TOEFYLAYLATEMP17FEMALEJUNFJUN1:12:32
1019266 [652]NO RETURN   FEMALESENFSEN1:12:32
1020267 [652]DE BASSAMPIERRELEANNEAAC32FEMALESENFSEN1:12:33
1021268 [652]SUMNERCANDICETEMP34FEMALESENFSEN1:12:33
10222 [3]GAHWILERCAROLK-WAY VOB72FEMALE70F701:12:34
102353 [74]BROWNMICHAELTEMP47MALE45M451:12:34
102426 [73]MAARTENSCHARLENETYGERBERG45FEMALE45F451:12:35
102517 [55] BASHEERAHTOP FORM58FEMALE55F551:12:35
102620 [79]ANDERSONELAAMTOP FORM50FEMALE50F501:12:35
1027269 [652]SWARTJO-ANNEAAC30FEMALESENFSEN1:12:36
1028277 [404]PETERSENIMTIAAZTEMP29MALESENMSEN1:12:36
102927 [73]KAMALDIENRAZAANCENTRAL AC45FEMALE45F451:12:37
103021 [40] TREVORESKOM59MALE55M551:12:41
103157 [71]MATTHEWSCANTONATEMP19MALEJUNMJUN1:12:41
1032278 [404]NO RETURN   MALESENMSEN1:12:43
103328 [73]ENGELBRECHTDEIRDRESAPS WP46FEMALE45F451:12:44
103438 [68]LEMMETJIEHARD50MALE50M501:12:44
1035279 [404]NO RETURN   MALESENMSEN1:12:44
103657 [90]BEUKESMARVANTEMP44MALE40M401:12:45
1037270 [652]MACHADOCLARAPINELANDS27FEMALESENFSEN1:12:45
103839 [68]PRICEARMIENARD52MALE50M501:12:46
103929 [73]BROUCKAERTSHARRONSPARTAN46FEMALE45F451:12:46
104040 [68]FRANCISZITHEKO51MALE50M501:12:47
104141 [68]JAKOETISMAILITHEKO50MALE50M501:12:48
1042271 [652]NO RETURN   FEMALESENFSEN1:12:49
104321 [79]MILLIGANGILLTEMP50FEMALE50F501:12:49
104425 [47]DOUGLASCORALTEMP19FEMALEJUNFJUN1:12:49
104542 [68]ABRAHAMSFAREEDITHEKO54MALE50M501:12:50
1046272 [652]TALJAARDDEIDRECAPE MULTISPORT27FEMALESENFSEN1:12:50
104754 [74]SAMPSONSAFWANTEMP45MALE45M451:12:50
104813 [25]O'RYANDEREKTEMP60MALE60M601:12:51
1049280 [404]NO RETURN   MALESENMSEN1:12:53
105022 [40]SARDIENKTEMP58MALE55M551:12:53
1051281 [404]THEROPIETERTEMP29MALESENMSEN1:12:54
1052273 [652]VAN ZYLBARBARATEMP29FEMALESENFSEN1:12:54
105334 [120]LAMBROBYNTEMP42FEMALE40F401:12:55
1054274 [652]NO CARD   FEMALESENFSEN1:12:56
1055282 [404]NO CARD   MALESENMSEN1:12:57
105623 [40]ANTHONYNAZEEMOMMIEDRAAI55MALE55M551:12:58
105758 [71]ISAACSLAYLAOMMIEDRAAI16MALEJUNMJUN1:12:58
1058275 [652]SEDUPANENOMUSATEMP30FEMALESENFSEN1:12:59
105947 [114]NYATSAMBOLINETTEMP35FEMALE35F351:13:00
1060276 [652]NO CARD   FEMALESENFSEN1:13:02
1061277 [652]ESCALONAVICTORIATEMP34FEMALESENFSEN1:13:03
1062278 [652]ANGORAANGELTEMP34FEMALESENFSEN1:13:04
1063279 [652]THOMSONROZTEMP33FEMALESENFSEN1:13:04
106448 [114]MOLOSISIBULELETEMP36FEMALE35F351:13:05
1065280 [652]DU TOITMARISKATEMP33FEMALESENFSEN1:13:05
1066281 [652]MULLERGABRIELLETEMP32FEMALESENFSEN1:13:07
106755 [74]MARLIETAPIEK-WAY VOB46MALE45M451:13:08
106859 [71]SMITHASLAMOMMIEDRAAI19MALEJUNMJUN1:13:09
106958 [90]AMARDIENSHAHEEMCENTRAL AC40MALE40M401:13:10
107022 [79]NO NAME TEMP FEMALE50F501:13:12
107123 [79]HOWEDONNARUN WALK 4 LIFE53FEMALE50F501:13:12
107259 [90]DALVIEAJUITHEKO40MALE40M401:13:13
107359 [76]ALLIEIMRAANMETROPOLITAN39MALE35M351:13:13
1074283 [404]NO RETURN   MALESENMSEN1:13:14
107524 [40]RAJAGOPAULWITHAGANSTRAGGLERS57MALE55M551:13:15
1076282 [652]NO RETURN   FEMALESENFSEN1:13:15
1077283 [652]NUNNERLEYMELISSATEMP26FEMALESENFSEN1:13:16
107849 [114]STODARTELMARIEK-WAY VOB37FEMALE35F351:13:17
1079284 [652]DE FREITASNIKKITEMP FEMALESENFSEN1:13:19
108050 [114]ALEXIOUJOANNARCS GUGS35FEMALE35F351:13:20
108135 [120]MILLAMSAMTEMP43FEMALE40F401:13:21
10824 [12]VAN WYKRITABRACKENFELL65FEMALE65F651:13:22
1083285 [652]MOSOTWANAJEANETTEAURECON29FEMALESENFSEN1:13:24
1084286 [652]BARODIENRASHEEQATEMP27FEMALESENFSEN1:13:24
108536 [120]DE KOCKMELISSAWILD RUNNER40FEMALE40F401:13:26
108637 [120]LEEJENNIETEMP40FEMALE40F401:13:26
108751 [114] ANTHEANANTES38FEMALE35F351:13:28
108852 [114]FRYERLIZELLESTRAND35FEMALE35F351:13:32
108938 [120]HORNMERCIATEMP42FEMALE40F401:13:34
1090287 [652]NO CARD   FEMALESENFSEN1:13:43
1091284 [404]KHANZIYAADTEMP31MALESENMSEN1:13:44
109260 [90]CHARLESALDREDTEMP43MALE40M401:13:49
1093285 [404]MILLAMRORYTEMP34MALESENMSEN1:13:51
109461 [90]ARENDSEIGHRAAMTEMP42MALE40M401:13:54
109553 [114]GMANSARAHTEMP38FEMALE35F351:13:56
1096286 [404]ADAMSFAIZELTEMP MALESENMSEN1:13:58
109739 [120]ACHMATRUSHDACENTRAL AC40FEMALE40F401:14:00
1098287 [404]MANACKUMARITHEKO MALESENMSEN1:14:03
1099288 [652]STELLENBOOMZULFAHTEMP31FEMALESENFSEN1:14:06
110025 [40]GOULFARRISYUSUFOMMIEDRAAI58MALE55M551:14:07
110124 [79]BARNARDMONIASANLAM53FEMALE50F501:14:08
110260 [71]NORTJEMARCOTEMP MALEJUNMJUN1:14:10
110340 [120]BUTTERWORTHJEANNEEDGEMEAD43FEMALE40F401:14:10
1104289 [652]PRICEMELANITEMP26FEMALESENFSEN1:14:11
1105288 [404]CASSIEMAS-ADTEMP22MALESENMSEN1:14:12
1106290 [652]MTOKONOLOYISOTEMP32FEMALESENFSEN1:14:12
1107291 [652]NO RETURN   FEMALESENFSEN1:14:13
1108289 [404]NO RETURN   MALESENMSEN1:14:14
110918 [55]FARMERMERCIADURBAC56FEMALE55F551:14:15
111054 [114]BARODIENSAARAHCENTRAL AC36FEMALE35F351:14:16
1111290 [404]NO CARD   MALESENMSEN1:14:19
111226 [47]DAVIDSZAHRATEMP15FEMALEJUNFJUN1:14:20
1113292 [652]DE LAUNEVEDOMTEMP25FEMALESENFSEN1:14:22
1114291 [404]NO CARD   MALESENMSEN1:14:27
1115293 [652]NO RETURN   FEMALESENFSEN1:14:34
1116294 [652]LOTTERJACLYNTEMP29FEMALESENFSEN1:14:40
1117295 [652]SALIELAMEESARD32FEMALESENFSEN1:14:41
1118296 [652]NO CARD   FEMALESENFSEN1:14:43
1119297 [652]ADDINALLCARMENEDGEMEAD24FEMALESENFSEN1:14:45
112056 [74]SCHOUWDENZILTEMP45MALE45M451:14:46
1121298 [652]ZAKIYYAH TEMP24FEMALESENFSEN1:14:48
112225 [79]MCGEETRACEYGOODWOOD51FEMALE50F501:14:51
112326 [40]EICHHORNHTEMP59MALE55M551:14:53
112455 [114]SOLOMONSINSULATEMP35FEMALE35F351:14:54
1125299 [652]NO CARD   FEMALESENFSEN1:14:56
112630 [73]BAKKERRONELMELKBOS46FEMALE45F451:14:57
112757 [74]SALIEPHALDIEARD49MALE45M451:14:58
112813 [28]MILLERNORAK-WAY VOB60FEMALE60F601:15:00
1129300 [652]NO RETURN   FEMALESENFSEN1:15:01
1130301 [652]NO CARD   FEMALESENFSEN1:15:02
113141 [120]MARSHALLHETTE-LIZETEMP41FEMALE40F401:15:04
1132302 [652]SCHEEPERSLYNNNEDBANK WP32FEMALESENFSEN1:15:05
113326 [79]WILSONDESIREEDGEMEAD51FEMALE50F501:15:05
113442 [120]DE ARAUJOBETINAEDGEMEAD44FEMALE40F401:15:08
113527 [79]HALLBELINDAEDGEMEAD52FEMALE50F501:15:09
1136303 [652]TAYOBMELISSATEMP27FEMALESENFSEN1:15:11
113728 [79]JOYNTBEVERLEYRUN WALK 4 LIFE52FEMALE50F501:15:11
113858 [74]CROYNATHANTEMP46MALE45M451:15:12
1139304 [652]JAKOETFARAHTEMP26FEMALESENFSEN1:15:13
1140292 [404]GIERDIENMUZAFFERTEMP27MALESENMSEN1:15:15
1141305 [652]NO RETURN   FEMALESENFSEN1:15:16
1142293 [404]NO RETURN   MALESENMSEN1:15:17
1143306 [652]BIGGSTARRYNSPARTAN24FEMALESENFSEN1:15:19
1144294 [404]EBRAHIMM ALITEMP33MALESENMSEN1:15:20
114514 [28]BOASTJENNIFERK-WAY VOB61FEMALE60F601:15:21
114643 [120]LAWRENCEJANICETEMP40FEMALE40F401:15:22
114744 [120]MULLERKATRINASPARTAN FEMALE40F401:15:24
114845 [120]FICKCORNELIATEMP42FEMALE40F401:15:25
114946 [120]DE VILLIERSMEGANCAPE MULTISPORT40FEMALE40F401:15:27
1150307 [652]NO CARD   FEMALESENFSEN1:15:28
11517 [9]TOMLINSONROYSPARTAN67MALE65M651:15:30
1152295 [404]NO CARD   MALESENMSEN1:15:31
1153308 [652]NO CARD   FEMALESENFSEN1:15:32
115447 [120]GILLESPIECATHERINETEMP FEMALE40F401:15:33
115559 [74]ARENDSEJLIBERTY49MALE45M451:15:34
1156309 [652]NO RETURN   FEMALESENFSEN1:15:35
115761 [71]FRANCISNUHAATEMP16MALEJUNMJUN1:15:36
115848 [120]FICKMELTEMP41FEMALE40F401:15:37
115949 [120]SALIETAHSHEENARD44FEMALE40F401:15:38
116029 [79]NORTJEANITATEMP FEMALE50F501:15:39
1161310 [652]NO RETURN   FEMALESENFSEN1:15:40
1162311 [652]EICHHORNJULIATEMP21FEMALESENFSEN1:15:41
1163312 [652]GASANTSUMAIYAHOMMIEDRAAI27FEMALESENFSEN1:15:42
116443 [68]THEBUSGAAMIEMTEMP51MALE50M501:15:43
1165313 [652]KROSCRYSTALEDGEMEAD30FEMALESENFSEN1:15:44
116650 [120]DHANSAYFAHEEMATEMP42FEMALE40F401:15:45
1167314 [652]NO CARD   FEMALESENFSEN1:15:46
1168296 [404]NO CARD   MALESENMSEN1:15:47
1169315 [652]NO CARD   FEMALESENFSEN1:15:48
1170316 [652]MARTINRUSHAANTEMP33FEMALESENFSEN1:15:49
1171317 [652]GAMIELDIENZAINABTEMP32FEMALESENFSEN1:15:50
117227 [47]MARCUSKAUTHARTEMP15FEMALEJUNFJUN1:15:51
1173318 [652]OGIERMALIKATEMP29FEMALESENFSEN1:15:52
1174319 [652]NO CARD   FEMALESENFSEN1:15:53
1175297 [404]NO RETURN   MALESENMSEN1:15:54
1176298 [404]NO RETURN   MALESENMSEN1:15:55
1177320 [652]NO RETURN   FEMALESENFSEN1:15:56
1178321 [652]NO CARD   FEMALESENFSEN1:15:57
1179322 [652]NO CARD   FEMALESENFSEN1:15:58
1180323 [652]HURTSTEMP31FEMALESENFSEN1:15:59
118151 [120]PETZERNICKYSANLAM42FEMALE40F401:16:00
118260 [74]HUGOALEXANDERBRACKENFELL45MALE45M451:16:01
118352 [120]LASKERPENNYAAC40FEMALE40F401:16:01
1184324 [652]AYESHA TEMP26FEMALESENFSEN1:16:02
118528 [47]BLANK CARD   FEMALEJUNFJUN1:16:03
1186325 [652]NO CARD   FEMALESENFSEN1:16:04
1187326 [652]SHEPHERDJULIAAAC32FEMALESENFSEN1:16:05
118844 [68]RINQUESTFARIEDAAC50MALE50M501:16:06
118962 [90]ADAMSSHAFIEKARD MALE40M401:16:07
1190299 [404]NO CARD   MALESENMSEN1:16:08
1191300 [404]AYUBIRFAANITHEKO34MALESENMSEN1:16:09
119261 [74]KRIELJHTEMP49MALE45M451:16:10
119331 [73]BREDEVELDTLESLEYRUN WALK 4 LIFE45FEMALE45F451:16:12
119430 [79]KINGLYNETTECAPE MULTISPORT50FEMALE50F501:16:13
119531 [79]SCHOUTENSHARONK-WAY VOB52FEMALE50F501:16:14
1196327 [652]CAWDRYERICACORR SERVICES WP FEMALESENFSEN1:16:15
119753 [120]JACOBSGALIEMATOP FORM44FEMALE40F401:16:16
119854 [120]SMALBERGERSUSANCENTRAL AC44FEMALE40F401:16:16
1199328 [652]NO CARD   FEMALESENFSEN1:16:17
1200329 [652] FIRDOWSARD28FEMALESENFSEN1:16:18
120156 [114]WARRINGTONTHEASANDF WP36FEMALE35F351:16:19
120262 [71]WAGGIEZIYAADTEMP16MALEJUNMJUN1:16:20
120357 [114]ROBINSONBARBARAHARFIELD39FEMALE35F351:16:21
1204330 [652]PENNINGKARLIENTEMP28FEMALESENFSEN1:16:22
1205301 [404]BOSMANALBETEMP28MALESENMSEN1:16:22
120655 [120]NIXONSUEK-WAY VOB42FEMALE40F401:16:23
120756 [120]RYANDEBBIEK-WAY VOB40FEMALE40F401:16:24
120858 [114]MAJONKATHRYNHARFIELD37FEMALE35F351:16:25
120932 [73]GOUWSMICHELLECAPE MULTISPORT48FEMALE45F451:16:26
1210331 [652]DAWOODMUMTAZTEMP28FEMALESENFSEN1:16:26
121157 [120]PARSONSLTEMP42FEMALE40F401:16:28
1212332 [652]NO CARD   FEMALESENFSEN1:16:29
121358 [120]SPOGTERLYNNERUN WALK 4 LIFE41FEMALE40F401:16:30
1214302 [404]SWARTWILLIEARCELOR MITTAL28MALESENMSEN1:16:31
1215303 [404]VAN ZYLLEIGHTEMP29MALESENMSEN1:16:32
1216333 [652]NO CARD   FEMALESENFSEN1:16:33
1217334 [652]SCOTTRUSHDATEMP34FEMALESENFSEN1:16:34
1218335 [652]MARTINYUMNATEMP33FEMALESENFSEN1:16:35
121959 [120]SALIENAFEESAWALMERS AC44FEMALE40F401:16:35
122059 [114]ZINYANATHEMBATEMP35FEMALE35F351:16:36
1221336 [652]MITCHELLMANDYCELTIC32FEMALESENFSEN1:16:37
1222337 [652]NO RETURN   FEMALESENFSEN1:16:40
1223338 [652]BRINKLEYSHANNONTEMP32FEMALESENFSEN1:16:40
122462 [74]SKINNERFRANCOISSTRAND47MALE45M451:16:41
122560 [114]KHANZAINABTEMP38FEMALE35F351:16:42
1226304 [404]BENJAMINNADEEMARD27MALESENMSEN1:16:44
122715 [28]MBEWUHAZELCELTIC60FEMALE60F601:16:45
1228339 [652]NO RETURN   FEMALESENFSEN1:16:47
1229340 [652]NO RETURN   FEMALESENFSEN1:16:48
1230305 [404]NO RETURN   MALESENMSEN1:16:49
1231341 [652]NO RETURN   FEMALESENFSEN1:16:49
1232342 [652] SALMAOMMIEDRAAI24FEMALESENFSEN1:16:50
1233306 [404]SAHIBOSMANTEMP MALESENMSEN1:16:51
123445 [68]ORRIEZAIDARD50MALE50M501:16:52
1235343 [652]NO RETURN   FEMALESENFSEN1:16:54
1236344 [652]ISMAILNURAANARD30FEMALESENFSEN1:16:58
1237307 [404]MALIEKAOMMIEDRAAI34MALESENMSEN1:16:59
1238345 [652]DAVISMAAJIDAHOMMIEDRAAI32FEMALESENFSEN1:17:00
12398 [9]LIEBERTRAUWRUN WALK 4 LIFE68MALE65M651:17:03
1240346 [652]MASEMOLASEIPATIACSA30FEMALESENFSEN1:17:04
124132 [79]MACKENZIEIRMASOUTH STRIDERS53FEMALE50F501:17:05
1242347 [652]COURTLINDITEMP31FEMALESENFSEN1:17:05
1243348 [652]JAWORSKAMEGANAAC34FEMALESENFSEN1:17:07
1244349 [652]STEVEJOLENESANLAM28FEMALESENFSEN1:17:08
1245350 [652]NO RETURN   FEMALESENFSEN1:17:10
124661 [114]NDLOVUDOLLARENCEPARLIAMENT39FEMALE35F351:17:12
124762 [114]WILLIAMSMELISSATEMP38FEMALE35F351:17:14
124860 [120]FUTTERLIDIATEMP41FEMALE40F401:17:15
1249351 [652]MTSHENGAUKANYATEMP30FEMALESENFSEN1:17:16
1250352 [652]COPEMANTARYNTEMP32FEMALESENFSEN1:17:18
1251308 [404]THOMSONBRETTTEMP34MALESENMSEN1:17:19
1252353 [652]JAMESTARINTEMP28FEMALESENFSEN1:17:21
1253309 [404]JAMESANDREWTEMP27MALESENMSEN1:17:22
1254354 [652]KORCKCASEYSPARTAN31FEMALESENFSEN1:17:23
125561 [120]GORDONMARCIASPARTAN41FEMALE40F401:17:24
1256310 [404]NKGADIMADONALDCENTURY CITY31MALESENMSEN1:17:24
125762 [120]AMOSZOE FATIMAMELKBOS FEMALE40F401:17:26
1258311 [404]NO RETURN TEMP MALESENMSEN1:17:27
125963 [90]ABDULLAMOHAMMEDTEMP44MALE40M401:17:29
1260355 [652]NO RETURN   FEMALESENFSEN1:17:29
1261356 [652]NO CARD   FEMALESENFSEN1:17:31
126264 [90]GAIBIEFIROZETEMP43MALE40M401:17:32
126360 [76]SAMUELSYUSUFTEMP39MALE35M351:17:34
1264312 [404]KOKSGRANTRCS GUGS34MALESENMSEN1:17:35
126514 [25]DANIELSISMAILNANTES63MALE60M601:17:38
126663 [114]VAN STADENALISONTEMP36FEMALE35F351:17:39
126763 [120]HATTINGHLIESLTEMP44FEMALE40F401:17:40
126865 [90]MOGAMISITUMOETSILEEDGEMEAD MALE40M401:17:41
126964 [120]ABDULLAHMUSHFIQAHCENTRAL AC43FEMALE40F401:17:42
127065 [120]MARTHINUSELIZABETHWILD RUNNER43FEMALE40F401:17:44
127166 [120]FAKIERSHARIFAARD44FEMALE40F401:17:45
1272357 [652]GOEFSCHKIMTEMP24FEMALESENFSEN1:17:46
1273358 [652] JADIECAPE MULTISPORT20FEMALESENFSEN1:17:48
127419 [55]VERNETTIJEDGEMEAD57FEMALE55F551:17:50
127529 [47]MARCHANTVICTORIATEMP16FEMALEJUNFJUN1:17:51
127667 [120]SOLOMONWAHIEBAHRUN WALK 4 LIFE FEMALE40F401:17:52
127764 [114]HODGSONJULIETEMP35FEMALE35F351:17:54
1278313 [404]JOHNSONADRIANTEMP30MALESENMSEN1:17:56
1279314 [404]NO RETURN   MALESENMSEN1:17:57
128065 [114]ABRAHAMSFAZLUNTEMP35FEMALE35F351:17:58
1281359 [652]NO CARD   FEMALESENFSEN1:17:59
1282360 [652]ESSACKNAA-ILAHTEMP25FEMALESENFSEN1:18:01
1283361 [652]V D STITHEKO FEMALESENFSEN1:18:01
1284362 [652]NO CARD   FEMALESENFSEN1:18:02
128566 [114]GOOSENCHRISTELLETEMP37FEMALE35F351:18:02
1286363 [652]ALEWIEYAH TEMP27FEMALESENFSEN1:18:04
128733 [73]CILLIERSMARIANTEMP45FEMALE45F451:18:05
128830 [47]CILLIERSMARINATEMP17FEMALEJUNFJUN1:18:07
128934 [73]DU TOITCHRISTELSWARTLAND47FEMALE45F451:18:08
1290315 [404]NO CARD   MALESENMSEN1:18:09
1291364 [652]NO CARD   FEMALESENFSEN1:18:11
1292365 [652]KATHRADANAZRENEARD27FEMALESENFSEN1:18:12
1293366 [652]NO CARD   FEMALESENFSEN1:18:13
1294367 [652]RAPERTAYANATEMP24FEMALESENFSEN1:18:14
1295368 [652]NO CARD   FEMALESENFSEN1:18:16
1296369 [652]CEMBLONELETEMP27FEMALESENFSEN1:18:16
129768 [120]JINOOHAKIERATEMP42FEMALE40F401:18:17
12989 [9]HOOSENEBRAHIMTEMP65MALE65M651:18:18
129933 [79]MAHARAGEGAILRUN WALK 4 LIFE54FEMALE50F501:18:19
130067 [114]ROELOFSELIZELTYGERBERG37FEMALE35F351:18:21
130168 [114]EVERTSRIANATYGERBERG37FEMALE35F351:18:22
1302370 [652]NO CARD   FEMALESENFSEN1:18:22
130369 [120]SLAMANGMOENEBATEMP42FEMALE40F401:18:25
1304316 [404]NO CARD   MALESENMSEN1:18:25
1305371 [652]NO RETURN   FEMALESENFSEN1:18:25
1306372 [652]NO CARD   FEMALESENFSEN1:18:28
130763 [74]TAYLORALLENSPARTAN46MALE45M451:18:28
130834 [79]VORSTERWILMAOMMIEDRAAI54FEMALE50F501:18:30
1309373 [652]NO CARD   FEMALESENFSEN1:18:31
131035 [73]LEKOMACECILIARCS GUGS45FEMALE45F451:18:31
131146 [68]ADAMSMOGAMMADVODACOM STRDIERS52MALE50M501:18:32
1312374 [652]NO CARD   FEMALESENFSEN1:18:33
131335 [79]STEMMETNAZALYTEMP53FEMALE50F501:18:36
131464 [74]LEKOMATHEORCS GUGS49MALE45M451:18:38
1315375 [652]HENDRICKSRAYGHAANAHCENTRAL AC33FEMALESENFSEN1:18:39
131661 [76]SULEMANREZATEMP35MALE35M351:18:41
1317376 [652]CHETTYLSANDF WP34FEMALESENFSEN1:18:42
1318377 [652]OXCHELAURENRUN WALK 4 LIFE32FEMALESENFSEN1:18:44
1319378 [652]NO CARD   FEMALESENFSEN1:18:46
132062 [76]SCHOTZLEENANTES37MALE35M351:18:47
1321379 [652]SCHOLTZJADENANTES32FEMALESENFSEN1:18:48
1322380 [652]MWANZAESTHERTEMP FEMALESENFSEN1:18:50
132370 [120]VAN ZYLERNATEMP43FEMALE40F401:18:51
1324381 [652]NO RETURN   FEMALESENFSEN1:18:53
1325382 [652]ADAMSAYESHATEMP29FEMALESENFSEN1:18:54
132666 [90]ADAMSVAWETEMP41MALE40M401:18:56
132771 [120]NEWTONJACQUITEMP43FEMALE40F401:18:57
1328317 [404]KEMPQUINTINTEMP31MALESENMSEN1:18:58
1329383 [652]KEMPNINAK-WAY VOB34FEMALESENFSEN1:18:59
1330384 [652]NO RETURN   FEMALESENFSEN1:19:00
133172 [120]MOLWANTOAFLORENCEPARLIAMENT FEMALE40F401:19:01
1332385 [652]NO CARD   FEMALESENFSEN1:19:01
133373 [120]COSGREAVENICKYWILD RUNNER43FEMALE40F401:19:01
133431 [47]TAFENISAMANTHATEMP18FEMALEJUNFJUN1:19:02
1335318 [404]NO RETURN   MALESENMSEN1:19:02
1336319 [404]NO RETURN   MALESENMSEN1:19:03
133736 [79]STEYNSHANITEMP FEMALE50F501:19:03
133865 [74]MYBURGHETEMP47MALE45M451:19:03
1339386 [652]MAARMANCECILIAITHEKO30FEMALESENFSEN1:19:04
13403 [3]HILLMARIECERES70FEMALE70F701:19:04
134136 [73]FELAARGERMAINEWILD RUNNER46FEMALE45F451:19:08
134263 [76]MARAISSTEMP35MALE35M351:19:09
1343387 [652]AXELSONJESSICAATC33FEMALESENFSEN1:19:09
134437 [79]MORUCKFAIKAKENFAC52FEMALE50F501:19:12
1345388 [652]NO CARD   FEMALESENFSEN1:19:13
1346320 [404]NO RETURN   MALESENMSEN1:19:15
134747 [68]FAKIRSWALMERS AC MALE50M501:19:16
134848 [68]GABIEISMAILWALMERS AC54MALE50M501:19:18
1349321 [404]MILLARTIMTEMP24MALESENMSEN1:19:19
135032 [47]MAHMOODNUREENTEMP16FEMALEJUNFJUN1:19:20
135174 [120]BLANK CARD   FEMALE40F401:19:22
135275 [120]VIDELERTHERESETEMP41FEMALE40F401:19:23
1353389 [652]NO RETURN   FEMALESENFSEN1:19:25
1354322 [404]NO CARD   MALESENMSEN1:19:26
1355390 [652]SAMPSONMICHELLESANLAM32FEMALESENFSEN1:19:27
135638 [79]AJAMGALIEMANANTES FEMALE50F501:19:32
135733 [47]RAYGAANAH K-WAY VOB17FEMALEJUNFJUN1:19:32
13585 [12]LAUHELGETEMP67FEMALE65F651:19:34
1359391 [652]KLITZNERKIARATEMP23FEMALESENFSEN1:19:35
136069 [114]KARLIEFATIMAARD38FEMALE35F351:19:36
1361392 [652]NO CARD   FEMALESENFSEN1:19:38
136267 [90]KARLIEFAROUKARD40MALE40M401:19:39
136368 [90]MATHEWSKAASHIEFKENFAC41MALE40M401:19:40
1364323 [404]NO RETURN   MALESENMSEN1:19:41
136563 [71]FAKIERMUHAMMADTEMP20MALEJUNMJUN1:19:42
136637 [73]ISMAILNARIMAWALMERS AC49FEMALE45F451:19:44
1367393 [652]NO CARD   FEMALESENFSEN1:19:45
136876 [120] DESIREETEMP44FEMALE40F401:19:46
136938 [73]DENNISMARILYNARD45FEMALE45F451:19:48
137020 [55]KHATIEBFAZAANOMMIEDRAAI57FEMALE55F551:19:50
137116 [28]DAVIDSNARRIMANOMMIEDRAAI61FEMALE60F601:19:51
1372394 [652]SHABODIENAMINAHOMMIEDRAAI24FEMALESENFSEN1:19:52
1373395 [652]NO RETURN   FEMALESENFSEN1:19:53
1374396 [652]JOHNSONCARINAK-WAY VOB29FEMALESENFSEN1:19:54
137577 [120]JEPPEMANDYK-WAY VOB42FEMALE40F401:19:55
1376397 [652]SAMBORAFIQAARD25FEMALESENFSEN1:19:56
1377324 [404]NO RETURN   MALESENMSEN1:19:57
137870 [114]KARIEMFORIZAHARD35FEMALE35F351:19:58
137978 [120]HENDRICKSFATIMAARD41FEMALE40F401:19:59
1380398 [652]JASONPRISCILLATEMP FEMALESENFSEN1:19:59
138139 [73]RYANINGRIDSPARTAN45FEMALE45F451:20:01
138215 [25]DOONERCHRISSANDF WP63MALE60M601:20:02
138371 [114]DAVIDSRTEMP38FEMALE35F351:20:02
1384399 [652]DARKWAAFIARUN WALK 4 LIFE31FEMALESENFSEN1:20:04
138534 [47]ADAMSHAFITHAKENFAC16FEMALEJUNFJUN1:20:06
1386400 [652]HARNEKARTASNEEMTOP FORM29FEMALESENFSEN1:20:06
1387401 [652]NO RETURN   FEMALESENFSEN1:20:08
138866 [74]SCHEEPERSLANCEMP TITANS47MALE45M451:20:09
138949 [68]KAMALDIENEKRAAMARD53MALE50M501:20:10
1390402 [652]NO RETURN   FEMALESENFSEN1:20:11
139172 [114]RYNHOUDLOUISAFISH HOEK37FEMALE35F351:20:11
1392403 [652]MAREEBRONWYNK-WAY VOB31FEMALESENFSEN1:20:13
1393325 [404]NO RETURN   MALESENMSEN1:20:14
1394404 [652]NO RETURN   FEMALESENFSEN1:20:16
139540 [73]ENSTROMCECELIATEMP48FEMALE45F451:20:17
139673 [114]AIREYLISAK-WAY VOB38FEMALE35F351:20:18
1397405 [652]KYNIACOUNATALIEK-WAY VOB30FEMALESENFSEN1:20:19
139864 [76]ADAMSADRUDDINITHEKO38MALE35M351:20:20
139941 [73]ABRAHAMSSORAYAITHEKO47FEMALE45F451:20:21
140021 [55]HASSANFAKIDAITHEKO55FEMALE55F551:20:22
140142 [73]SOLOMONZAINABTOP FORM48FEMALE45F451:20:23
14021 [4]VAN ROOYENJOHNARD75MALE75M751:20:24
140369 [90]SIDINANAMRCS GUGS41MALE40M401:20:25
1404406 [652]NO RETURN   FEMALESENFSEN1:20:26
140517 [28]VAN SCHALKWYKATEMP60FEMALE60F601:20:27
140616 [25]VAN SCHALKWYKPTEMP63MALE60M601:20:29
140718 [28]ADAMZOEBYDANANTES FEMALE60F601:20:31
1408407 [652]ZIMMELMANMEGANTEMP22FEMALESENFSEN1:20:32
140939 [79]NOVELLAJULIATEMP54FEMALE50F501:20:37
1410408 [652]HENDRICKSNURUNISATEMP31FEMALESENFSEN1:20:38
141140 [79]ESAUANNABELLENEDBANK WP52FEMALE50F501:20:40
1412409 [652]SHIBURIBONAKALATEMP FEMALESENFSEN1:20:41
141335 [47]SKINNERSAMANTHASTRAND17FEMALEJUNFJUN1:20:42
1414410 [652]PEARMANMICHELLETEMP29FEMALESENFSEN1:20:46
141536 [47]MSOMILATOATEMP17FEMALEJUNFJUN1:20:48
1416411 [652]HILLLARACAPE MULTISPORT27FEMALESENFSEN1:20:49
1417412 [652] KIRSTIITHEKO21FEMALESENFSEN1:20:50
141874 [114]ARANGIEJOHANICETEMP39FEMALE35F351:20:51
1419413 [652]NO CARD   FEMALESENFSEN1:20:52
142027 [40]TAYLORJEREMYTEMP55MALE55M551:20:53
1421326 [404]NO RETURN   MALESENMSEN1:20:54
142275 [114]TURNERHAYLEYTEMP38FEMALE35F351:20:55
142370 [90]DOLLIEKHALIQTEMP42MALE40M401:20:57
1424414 [652]NO RETURN   FEMALESENFSEN1:20:58
142522 [55]DU TOITDOROTHYSPARTAN55FEMALE55F551:20:59
1426415 [652]ELOFFELSAMARIATEMP29FEMALESENFSEN1:21:00
1427416 [652]NO RETURN   FEMALESENFSEN1:21:02
1428417 [652]COETZEELAURENTEMP25FEMALESENFSEN1:21:03
1429418 [652]AMSTERDAMKIRSTENTEMP26FEMALESENFSEN1:21:04
1430327 [404]MERVINSTEVENTEMP30MALESENMSEN1:21:05
143176 [114]AMTAYAASIYAHARD38FEMALE35F351:21:07
1432419 [652]MARAISSUMINETEMP23FEMALESENFSEN1:21:08
1433328 [404]LOUBSERJOHANNESTEMP23MALESENMSEN1:21:09
143423 [55]ROUXAMLARIERUN WALK 4 LIFE55FEMALE55F551:21:10
143524 [55]HAWELIZABETHTEMP57FEMALE55F551:21:11
1436420 [652]RABINMUSHFIQAHTEMP33FEMALESENFSEN1:21:13
143719 [28]VENTERKAROLADURBAC63FEMALE60F601:21:16
1438329 [404]PIENAARJIHAADTEMP23MALESENMSEN1:21:17
143979 [120]SEALENOLENESPARTAN FEMALE40F401:21:18
144050 [68]ISAACSNAZEEMTEMP51MALE50M501:21:19
144177 [114]ABRAHAMSWADIEAHTEMP37FEMALE35F351:21:21
1442421 [652]ISAACSSAADIQAHTEMP FEMALESENFSEN1:21:22
1443330 [404]HARTLEYKAASHIEFTEMP29MALESENMSEN1:21:23
1444422 [652]NOORDIENAYESHAARD27FEMALESENFSEN1:21:24
144543 [73]MOHAMEDRAMNURCENTRAL AC48FEMALE45F451:21:25
144644 [73]ZIMMERMANDEBBIESPARTAN48FEMALE45F451:21:26
144778 [114]MAJIETGALIMAHCENTRAL AC36FEMALE35F351:21:27
1448423 [652]MATTHEWSMEAGANNANTES29FEMALESENFSEN1:21:28
1449424 [652]NO RETURN   FEMALESENFSEN1:21:29
1450331 [404]NO CARD   MALESENMSEN1:21:29
1451425 [652]SWARTSCELESTENANTES32FEMALESENFSEN1:21:30
1452426 [652]NO RETURN   FEMALESENFSEN1:21:31
145371 [90]HARRISATEMP44MALE40M401:21:32
145480 [120]COSSOSARE OLIETETEMP43FEMALE40F401:21:33
1455332 [404]DANIELSABDURAHMANTEMP29MALESENMSEN1:21:34
1456427 [652]JAKOETMALIKAHTEMP23FEMALESENFSEN1:21:35
1457428 [652]ADAMSRIEDWAANTEMP25FEMALESENFSEN1:21:36
1458429 [652]NO RETURN   FEMALESENFSEN1:21:38
145945 [73]VAN DER MERWEMARTHINABRACKENFELL48FEMALE45F451:21:39
146025 [55]ADAMSMARIAMARD55FEMALE55F551:21:40
146179 [114]MLALAZINONHLANHLATEMP35FEMALE35F351:21:41
146251 [68]ALLIEFUADITHEKO50MALE50M501:21:42
1463333 [404]NO RETURN   MALESENMSEN1:21:43
1464430 [652]NO RETURN   FEMALESENFSEN1:21:43
146537 [47]ENGELBRECHTCHARNETEMP19FEMALEJUNFJUN1:21:44
146626 [55]FULLERJANEK-WAY VOB56FEMALE55F551:21:45
146728 [40]FULLERRAYMONDK-WAY VOB57MALE55M551:21:46
1468431 [652]SALLIETARYNNANTES29FEMALESENFSEN1:21:46
146980 [114]SEWELLALISONWEST COAST38FEMALE35F351:21:47
1470432 [652]NO RETURN   FEMALESENFSEN1:21:48
147181 [120]BASSIERGASINAARD40FEMALE40F401:21:48
1472433 [652]NO RETURN   FEMALESENFSEN1:21:50
147346 [73]KALLIESGADIJATEMP47FEMALE45F451:21:50
147441 [79]SEMAARWAHIEBAITHEKO52FEMALE50F501:21:51
1475334 [404]ELLOKERIMRAANTEMP29MALESENMSEN1:21:52
1476434 [652]FORTUINSUERETATEMP33FEMALESENFSEN1:21:53
1477435 [652]DOMINGOZAHRAHOMMIEDRAAI28FEMALESENFSEN1:21:54
147882 [120]DIENRUKAYAARD41FEMALE40F401:21:56
1479335 [404]NO CARD   MALESENMSEN1:21:57
1480436 [652]NO CARD   FEMALESENFSEN1:21:58
1481437 [652]KHANMUDASSIRATEMP26FEMALESENFSEN1:21:59
1482336 [404]HARGEYIRFAANTEMP30MALESENMSEN1:22:01
148317 [25]ABRAHAMSEBRAHIMNANTES60MALE60M601:22:02
148452 [68]ISMAILFEDGEMEAD53MALE50M501:22:03
148583 [120]OBERHOLZERSORINATEMP40FEMALE40F401:22:04
148681 [114]DANIELSCARINEEDGEMEAD39FEMALE35F351:22:05
1487438 [652]SMITHAMANDATEMP33FEMALESENFSEN1:22:07
1488439 [652]NO CARD   FEMALESENFSEN1:22:08
148965 [76]FORTUINWINSTONTEMP38MALE35M351:22:09
149066 [76]ADAMSADNAANTOP FORM38MALE35M351:22:09
149182 [114]VAN ROOYENSBRACKENFELL36FEMALE35F351:22:10
149218 [25]BHIKOOSHARIFMETROPOLITAN62MALE60M601:22:11
1493337 [404]NO CARD   MALESENMSEN1:22:12
1494440 [652]NO CARD   FEMALESENFSEN1:22:13
1495441 [652]FOKWANAFLORATEMP FEMALESENFSEN1:22:15
1496442 [652]AYLWARDEMMY-LOUISETEMP25FEMALESENFSEN1:22:16
1497338 [404]KLAASSENRUANTEMP24MALESENMSEN1:22:16
1498443 [652]WYNGAARDSHELLY-ANNEDGEMEAD34FEMALESENFSEN1:22:17
1499444 [652]SOUTHGATEJILLTEMP33FEMALESENFSEN1:22:18
1500445 [652]BROCKKATHARINACELTIC26FEMALESENFSEN1:22:19
150127 [55]EICHHORNLISATEMP57FEMALE55F551:22:20
150284 [120]BLANK CARD   FEMALE40F401:22:22
1503446 [652]NO RETURN   FEMALESENFSEN1:22:23
1504447 [652]UNITEEMMATEMP20FEMALESENFSEN1:22:24
1505448 [652]NO CARD   FEMALESENFSEN1:22:25
1506339 [404]NO CARD   MALESENMSEN1:22:26
150753 [68]BLANK CARD   MALE50M501:22:27
150885 [120]BLANK CARD   FEMALE40F401:22:28
150954 [68]SAMUELSRTOP FORM54MALE50M501:22:29
151028 [55]YASINNAZLIETOP FORM57FEMALE55F551:22:30
151129 [55]THEUNISSENYASMINTOP FORM55FEMALE55F551:22:31
1512449 [652]NO CARD   FEMALESENFSEN1:22:32
1513450 [652]NO RETURN   FEMALESENFSEN1:22:34
1514451 [652]KIPPIESHIEHAAMARD31FEMALESENFSEN1:22:35
151586 [120]EBRAHIMREHANATOP FORM41FEMALE40F401:22:37
1516452 [652]ACHERDIENZAAHIERAHTOP FORM31FEMALESENFSEN1:22:38
1517340 [404]ACHERDIENFIQREETOP FORM32MALESENMSEN1:22:39
1518341 [404]JACOBSZUBEIRTOP FORM21MALESENMSEN1:22:40
151929 [40]YASINANVERTOP FORM57MALE55M551:22:42
1520453 [652]BRINKFERUSKAHTEMP26FEMALESENFSEN1:22:43
152187 [120]DUZETHULEKATEMP40FEMALE40F401:22:44
1522454 [652]LERAYSIANTEMP30FEMALESENFSEN1:22:44
1523455 [652]BULAJICBOJANATEMP30FEMALESENFSEN1:22:45
1524456 [652]MARAISADRICAPE MULTISPORT29FEMALESENFSEN1:22:46
152547 [73]SKINNERANGELASTRAND45FEMALE45F451:22:47
152688 [120]BALLANTHEAFISH HOEK43FEMALE40F401:22:48
1527457 [652]NO CARD   FEMALESENFSEN1:22:48
1528342 [404]ABRAHAMSUZAIRTEMP26MALESENMSEN1:22:49
1529343 [404]NO CARD   MALESENMSEN1:22:51
1530458 [652]NO CARD   FEMALESENFSEN1:22:51
153120 [28]JONKERJJDURBAC61FEMALE60F601:22:52
1532344 [404]NO RETURN   MALESENMSEN1:22:54
1533459 [652]NO RETURN   FEMALESENFSEN1:22:55
1534460 [652]MOOSAJEENAEELACENTRAL AC24FEMALESENFSEN1:22:55
1535461 [652]WILLIAMSYUSRACENTRAL AC27FEMALESENFSEN1:22:57
1536462 [652]ISAACSZAHRAACENTRAL AC23FEMALESENFSEN1:22:58
1537463 [652]V D SRAZIAHCENTRAL AC29FEMALESENFSEN1:22:59
153842 [79]AMLAYNADEEMACENTRAL AC52FEMALE50F501:23:00
1539464 [652]ABRAHAMSZAYBAHNANTES31FEMALESENFSEN1:23:01
1540465 [652]NO RETURN   FEMALESENFSEN1:23:01
1541345 [404]NO RETURN   MALESENMSEN1:23:02
154272 [90]DOYLETREVORTEMP44MALE40M401:23:03
1543466 [652]NO RETURN   FEMALESENFSEN1:23:03
1544346 [404]NO CARD   MALESENMSEN1:23:04
154573 [90]EBRAHIMZULFIKARTEMP43MALE40M401:23:05
154643 [79]SULLIVANMINASANLAM54FEMALE50F501:23:06
154755 [68]SULLIVANGDURBAC52MALE50M501:23:06
154844 [79]MILLERTRUDICAPE MULTISPORT54FEMALE50F501:23:07
154983 [114]DE CAPRIOCILATEMP39FEMALE35F351:23:08
1550467 [652]NO RETURN   FEMALESENFSEN1:23:09
1551468 [652]ZAIDA TEMP32FEMALESENFSEN1:23:10
1552469 [652]NO CARD   FEMALESENFSEN1:23:11
155367 [76]ABRAHAMSNASSERTEMP37MALE35M351:23:11
155430 [40]CASSIEMEBRAHIMTEMP55MALE55M551:23:12
155530 [55]ABRAHAMSDEIDRETEMP56FEMALE55F551:23:14
155684 [114]GOUSANDRICASPARTAN36FEMALE35F351:23:14
155785 [114]HESOMJUDYSPARTAN39FEMALE35F351:23:15
155889 [120]SPLINTERSANANTES41FEMALE40F401:23:15
155990 [120]LALLAMARIAMNANTES43FEMALE40F401:23:17
156091 [120]MUSSONRASHIEDAKENFAC FEMALE40F401:23:18
1561470 [652]SHAFIEKA ITHEKO32FEMALESENFSEN1:23:19
1562471 [652]BOTHAELIZETEMP30FEMALESENFSEN1:23:19
156364 [71]SHIRAMISH-AALTEMP16MALEJUNMJUN1:23:20
15646 [12]ARENDSEANNEOLD MUTUAL65FEMALE65F651:23:21
1565472 [652]FOKWANAPORTIATEMP30FEMALESENFSEN1:23:22
1566473 [652]TUTAOLWETHUTEMP30FEMALESENFSEN1:23:22
1567474 [652]STEFFENTRACEYTEMP FEMALESENFSEN1:23:24
1568475 [652]BLANK CARD   FEMALESENFSEN1:23:24
156968 [76]JAKOETQASIMCENTRAL AC39MALE35M351:23:25
1570347 [404]NO CARD   MALESENMSEN1:23:25
1571476 [652]NO CARD   FEMALESENFSEN1:23:26
1572477 [652]NO RETURN   FEMALESENFSEN1:23:27
1573478 [652]NO RETURN   FEMALESENFSEN1:23:27
1574479 [652]ADHIKARIEBILQEESWALMERS AC22FEMALESENFSEN1:23:29
157545 [79]ADHIKARISWASIEFWALMERS AC54FEMALE50F501:23:30
157656 [68]DAVIDSSHUAIBWALMERS AC51MALE50M501:23:31
15772 [3]HERMANSRSPARTAN72MALE70M701:23:31
157892 [120]MERRILOU SPARTAN40FEMALE40F401:23:32
157974 [90]NEFDTGERARDTEMP44MALE40M401:23:33
1580480 [652]HENDRICKSLINDSAYSPARTAN34FEMALESENFSEN1:23:33
158193 [120]LIDDLENAOMICAPE MULTISPORT44FEMALE40F401:23:34
1582481 [652]KUZEEMARTINETEMP20FEMALESENFSEN1:23:34
1583482 [652]NO RETURN   FEMALESENFSEN1:23:35
1584348 [404]VAN DER WALTGERHARDTEMP33MALESENMSEN1:23:35
1585483 [652]DU PREEZJEANDRETEMP27FEMALESENFSEN1:23:36
1586484 [652]NO CARD   FEMALESENFSEN1:23:37
1587349 [404]NO CARD   MALESENMSEN1:23:37
1588485 [652]NO RETURN   FEMALESENFSEN1:23:37
158965 [71]SIMONABDURAGHIEMOMMIEDRAAI16MALEJUNMJUN1:23:39
159094 [120]GAXELAZUKISWARCS GUGS42FEMALE40F401:23:39
159195 [120]MATTHEECHARMAINEMETROPOLITAN43FEMALE40F401:23:40
1592350 [404]ENZILSHAUNTEMP27MALESENMSEN1:23:41
159396 [120]MAJOLIDANCIEWEST COAST41FEMALE40F401:23:41
15947 [12]NIEUWENHUISFATIMATOP FORM67FEMALE65F651:23:42
1595486 [652] EMCEETEMP31FEMALESENFSEN1:23:42
159646 [79]BYAMONDLOUISEHOUT BAY FEMALE50F501:23:43
159757 [68]BYAMONDIANHOUT BAY MALE50M501:23:44
159886 [114]RUHSHANA ARD35FEMALE35F351:23:45
1599487 [652]ESSACKMUBEENAHTEMP20FEMALESENFSEN1:23:45
160038 [47]MAHMOODFARHEENTEMP18FEMALEJUNFJUN1:23:46
1601488 [652]NO CARD   FEMALESENFSEN1:23:47
1602489 [652]NO CARD   FEMALESENFSEN1:23:48
1603351 [404]NO CARD   MALESENMSEN1:23:48
160439 [47]ADAMSBUSHRAKENFAC12FEMALEJUNFJUN1:23:49
1605490 [652]THEMBATHANDEKATEMP29FEMALESENFSEN1:23:49
1606491 [652]DAULBTEMP31FEMALESENFSEN1:23:50
1607492 [652]CRAULCOURTNAYTEMP31FEMALESENFSEN1:23:51
1608493 [652]NO CARD   FEMALESENFSEN1:23:51
1609352 [404]NO CARD   MALESENMSEN1:23:52
1610494 [652]NO CARD   FEMALESENFSEN1:23:53
161158 [68]CADERABULWALMERS AC52MALE50M501:23:53
161275 [90]FAKIERSHAMILITHEKO44MALE40M401:23:54
1613353 [404]NO CARD   MALESENMSEN1:23:55
1614495 [652]NO CARD   FEMALESENFSEN1:23:56
161597 [120]FRITZJO-ANNETEMP41FEMALE40F401:23:56
161676 [90]FRITZGARYTEMP40MALE40M401:23:57
161731 [55]MASOETABEDAITHEKO59FEMALE55F551:23:58
1618496 [652]VAN NIEKERKYOLANDISANLAM27FEMALESENFSEN1:23:58
1619497 [652]OTTOILZE-MARIESANLAM27FEMALESENFSEN1:23:59
1620498 [652]NO CARD   FEMALESENFSEN1:24:00
1621499 [652]NO CARD   FEMALESENFSEN1:24:01
1622500 [652]AJAMNAZREENTEMP36FEMALESENFSEN1:24:02
1623354 [404]NO CARD   MALESENMSEN1:24:02
1624501 [652]SWARTMARILETEMP24FEMALESENFSEN1:24:02
1625502 [652]SWARTLANDIARCELOR MITTAL25FEMALESENFSEN1:24:22
1626355 [404]KRITZINGERELTONTEMP MALESENMSEN1:24:22
1627356 [404]NO CARD   MALESENMSEN1:24:24
162848 [73]AUGUSTCOLLEENK-WAY VOB47FEMALE45F451:24:31
162987 [114]RYKLIEFNAWHAALCENTRAL AC37FEMALE35F351:24:34
163088 [114]ADAMSRIFQACENTRAL AC37FEMALE35F351:24:34
163132 [55]MANTERSANDRARUN WALK 4 LIFE55FEMALE55F551:24:35
1632503 [652]OLIVERKASHIFACENTRAL AC FEMALESENFSEN1:24:36
163349 [73]KRAUSEANKETEMP45FEMALE45F451:24:38
1634504 [652]NO CARD   FEMALESENFSEN1:24:38
1635357 [404]BLANK CARD   MALESENMSEN1:24:39
163650 [73] LYNETTETEMP45FEMALE45F451:24:40
1637505 [652]NO RETURN   FEMALESENFSEN1:24:40
1638506 [652] ASANDATEMP25FEMALESENFSEN1:24:41
163947 [79]PRICENAZLIEARD FEMALE50F501:24:41
164051 [73]SAFFIERDEDGEMEAD47FEMALE45F451:24:42
164177 [90]ARTHURPETULATEMP MALE40M401:24:42
164233 [55]VAN DIEMENATEMP58FEMALE55F551:24:42
164331 [40]ENUSNASRULLAARD58MALE55M551:24:43
1644507 [652]PIENAARAAMINAHTEMP23FEMALESENFSEN1:24:44
1645508 [652]NO RETURN   FEMALESENFSEN1:24:46
164621 [28]MACDONALDANNETEMP62FEMALE60F601:24:46
1647358 [404]NO RETURN   MALESENMSEN1:24:47
164848 [79]OOSTHUIZEN TEMP FEMALE50F501:24:47
164934 [55]JOHAARFERIALTOP FORM56FEMALE55F551:24:47
165098 [120]JASSIEMKARIEMAARD43FEMALE40F401:24:48
1651509 [652]MARCUSTHAAKIRAHTEMP20FEMALESENFSEN1:24:49
165249 [79]BLANK CARD   FEMALE50F501:24:50
1653510 [652]NO RETURN   FEMALESENFSEN1:24:50
1654359 [404]PELLIZANADRIANITHEKO32MALESENMSEN1:24:51
1655511 [652]PELLIZANKALLENETEMP30FEMALESENFSEN1:24:52
165699 [120]ISMAILZCAPE MULTISPORT44FEMALE40F401:24:52
16578 [12]VAN NIEKERKHENRIETTATEMP66FEMALE65F651:24:53
165859 [68]HACKINGWESTEMP51MALE50M501:24:54
165919 [25]NOORMAR WANNTEMP MALE60M601:24:55
166089 [114]BESTERRONELTEMP38FEMALE35F351:24:55
1661360 [404]NO RETURN   MALESENMSEN1:24:56
1662512 [652]NO CARD   FEMALESENFSEN1:24:57
1663513 [652]NO CARD   FEMALESENFSEN1:24:58
166450 [79]MOHAMEDZAIDAHITHEKO52FEMALE50F501:24:59
166560 [68]SALIERASHAADTEMP50MALE50M501:24:59
166652 [73]NIEKERKTHERESANANTES48FEMALE45F451:25:01
166735 [55]ALEXANDERNAZEEMANANTES58FEMALE55F551:25:02
166822 [28]ALLIEGHAIRONESAOMMIEDRAAI61FEMALE60F601:25:04
166966 [71]KAMISHM RAYGAANNANTES16MALEJUNMJUN1:25:04
167090 [114]ASHIA ARD35FEMALE35F351:25:06
1671514 [652]NORDIENQUANITAARD25FEMALESENFSEN1:25:07
167291 [114]JOHAARSUMAYYATEMP39FEMALE35F351:25:08
167378 [90]ALFINOMARUFTEMP40MALE40M401:25:08
1674100 [120]MAYRARD43FEMALE40F401:25:09
1675361 [404]NO RETURN   MALESENMSEN1:25:09
167669 [76]NAJJAARTHOFIERTEMP36MALE35M351:25:09
1677515 [652]WAAGHIEDA ARD31FEMALESENFSEN1:25:10
1678516 [652]NAJJAARLEILAHARD33FEMALESENFSEN1:25:10
167992 [114]TITUSZEYHABTEMP39FEMALE35F351:25:11
1680517 [652]NO CARD   FEMALESENFSEN1:25:11
1681518 [652]AMTAYMAROOFAARD29FEMALESENFSEN1:25:12
1682519 [652]NO CARD   FEMALESENFSEN1:25:15
1683520 [652]FORTUNENAZLICENTRAL AC FEMALESENFSEN1:25:15
168479 [90]FORTUNEANWARCENTRAL AC MALE40M401:25:17
1685362 [404]NO RETURN   MALESENMSEN1:25:17
1686521 [652]SAMUELSSAAJIDAHTOP FORM24FEMALESENFSEN1:25:18
168793 [114]MANUMENOMFUNDISOCENTURY CITY38FEMALE35F351:25:18
1688522 [652]MILLERKRISCAPE MULTISPORT30FEMALESENFSEN1:25:20
1689363 [404]ERLANKWARRICKTEMP33MALESENMSEN1:25:20
169036 [55]RYKLIEFHABIBATOP FORM56FEMALE55F551:25:20
169161 [68]ENGELBRECHTLGOODWOOD54MALE50M501:25:21
169280 [90]DE JONGHRICARDOTEMP MALE40M401:25:22
1693523 [652]FELLBRIGETTETEMP25FEMALESENFSEN1:25:23
1694524 [652]NO RETURN   FEMALESENFSEN1:25:26
169553 [73]MOSTERTALICEK-WAY VOB48FEMALE45F451:25:26
169662 [68]MOSTERT K-WAY VOB54MALE50M501:25:27
169751 [79]TIPPINGNICOLATEMP FEMALE50F501:25:29
169840 [47]BEZUIDENHOUTMEGANK-WAY VOB19FEMALEJUNFJUN1:25:30
169963 [68]THOMPSONDAVIDCLIFFE DEKKER53MALE50M501:25:31
170067 [71]THOMPSONSIMONCLIFFE DEKKER19MALEJUNMJUN1:25:33
170154 [73]SOLOMONZAINAPARD46FEMALE45F451:25:35
1702525 [652]NO RETURN   FEMALESENFSEN1:25:36
170341 [47]JASSIEMQADIRATEMP18FEMALEJUNFJUN1:25:38
1704526 [652]NO RETURN   FEMALESENFSEN1:25:38
170594 [114]KRIGERIANASANLAM35FEMALE35F351:25:39
170632 [40]DANIELSMK-WAY VOB58MALE55M551:25:39
170733 [40]HAWMICHAELTEMP57MALE55M551:25:41
1708527 [652]HENDRICKSRACINETEMP28FEMALESENFSEN1:25:42
17092 [4]MARCUSABHUBAKERARD75MALE75M751:25:43
1710528 [652]DIRKSHIREENARD32FEMALESENFSEN1:25:44
171195 [114]WALTESAYESHAARD38FEMALE35F351:25:44
171296 [114] ROCHELLESANLAM38FEMALE35F351:25:46
1713529 [652]BARODIENMASTURATEMP29FEMALESENFSEN1:25:46
1714364 [404]NO RETURN   MALESENMSEN1:25:47
1715365 [404]NO RETURN   MALESENMSEN1:25:48
171697 [114]WILLIAMSSUSANTEMP37FEMALE35F351:25:49
171752 [79]PETERSENGILLIANTEMP52FEMALE50F501:25:50
1718530 [652]NO RETURN   FEMALESENFSEN1:25:52
1719531 [652]NO CARD   FEMALESENFSEN1:25:54
1720532 [652]NO CARD   FEMALESENFSEN1:25:54
172167 [74]HUGOCHRISNANTES48MALE45M451:25:57
172270 [76]WIESEJUANSWARTLAND37MALE35M351:25:58
1723533 [652]NO RETURN   FEMALESENFSEN1:26:00
17249 [12]BENJAMINZTOP FORM67FEMALE65F651:26:02
1725534 [652]HUISAMENANNETTESANLAM24FEMALESENFSEN1:26:02
172653 [79]NORTJEJOHRINESANLAM FEMALE50F501:26:03
1727366 [404]MBENANASANDISWAPINELANDS33MALESENMSEN1:26:05
1728367 [404]NO RETURN   MALESENMSEN1:26:05
1729535 [652]NO CARD   FEMALESENFSEN1:26:08
173042 [47]ISAACSKOUTHARITHEKO15FEMALEJUNFJUN1:26:09
173123 [28]WILDSNADIACELTIC61FEMALE60F601:26:10
173271 [76]SELALAMATLOKETEMP37MALE35M351:26:12
1733101 [120]BOOISIWAKAZITEMP43FEMALE40F401:26:13
1734536 [652]LAKAYFAZLINCENTRAL AC32FEMALESENFSEN1:26:14
17353 [4]JONESRICHARDSATORI79MALE75M751:26:15
1736537 [652]MARNEYROBYN LEETEMP21FEMALESENFSEN1:26:16
1737538 [652]MORSYOLIVIATEMP31FEMALESENFSEN1:26:17
173868 [74]AMIENRASHEEDTEMP45MALE45M451:26:17
1739539 [652]DAMONNADIYAHARD31FEMALESENFSEN1:26:19
1740368 [404]SAMBOFAHKRIEARD33MALESENMSEN1:26:20
174154 [79]OSMANYUMNATEMP52FEMALE50F501:26:20
174269 [74]OSMANEBRAHIMTEMP49MALE45M451:26:21
1743102 [120]BURTONCARMINFIT 200042FEMALE40F401:26:23
174434 [40]CUBITTTIMFIT 200059MALE55M551:26:24
174520 [25]ISAACSTAPESPARTAN63MALE60M601:26:25
174681 [90]DHANSAYSHAMSUDIENTEMP40MALE40M401:26:26
1747369 [404]NO CARD   MALESENMSEN1:26:28
174882 [90]BEGGADNAANTEMP41MALE40M401:26:29
1749103 [120]BEGGSORAYATEMP40FEMALE40F401:26:29
1750540 [652]NO CARD   FEMALESENFSEN1:26:31
1751541 [652]OOSTHUIZENMICHELLETEMP21FEMALESENFSEN1:26:31
1752370 [404]ROSSOUWHOFERTEMP30MALESENMSEN1:26:32
1753542 [652]NO RETURN   FEMALESENFSEN1:26:33
1754543 [652]NO CARD   FEMALESENFSEN1:26:35
1755544 [652]NO CARD   FEMALESENFSEN1:26:37
175655 [73]BOSMANELAINENEDBANK WP46FEMALE45F451:26:39
1757545 [652]JOORSTSHERNATEMP33FEMALESENFSEN1:26:39
1758371 [404]JOORSTANDRETEMP33MALESENMSEN1:26:40
1759372 [404]NO RETURN   MALESENMSEN1:26:42
1760546 [652]NO RETURN   FEMALESENFSEN1:26:43
1761104 [120]BABAFATIMATEMP40FEMALE40F401:26:44
176245 [55]NOVEMBERMOIRAITHEKO57FEMALE55F551:36:45
176335 [40]NOVEMBERIVANITHEKO59MALE55M551:26:46
1764547 [652]MARCHANTEMMA-LEETEMP20FEMALESENFSEN1:27:08
176598 [114]NDLAZETHABISATEMP38FEMALE35F351:27:09
176699 [114]BAVUMATHOZAMATEMP35FEMALE35F351:27:11
1767548 [652]LAATTOERIAHNATEMP32FEMALESENFSEN1:27:11
176855 [79]HENDRICKSVALMATEMP51FEMALE50F501:27:12
176956 [79]LAKAYAZIZATYGERBERG51FEMALE50F501:27:15
177070 [74]VAN DER SANDTHEINRICHIN TOUCH46MALE45M451:27:18
177156 [73]MOHAMADSHAMIELACENTRAL AC48FEMALE45F451:27:31
177257 [73]PETERSENSHANAAZCENTRAL AC45FEMALE45F451:27:34
1773549 [652]ISAACSWARDAHCENTRAL AC33FEMALESENFSEN1:27:38
177483 [90]ISAACSNAZIERCENTRAL AC40MALE40M401:27:40
1775550 [652]NO CARD   FEMALESENFSEN1:27:41
1776551 [652]CHETTYYERUSHKATEMP FEMALESENFSEN1:27:43
1777373 [404]NO RETURN   MALESENMSEN1:27:45
177868 [71]KAMISHMUSTAPHANANTES14MALEJUNMJUN1:27:46
1779100 [114]STEMMETTHAKIRATOP FORM35FEMALE35F351:27:47
178072 [76]STEMMETAMEENTOP FORM35MALE35M351:27:49
178158 [73]STEVENSVANESSARUN WALK 4 LIFE47FEMALE45F451:27:50
1782105 [120]HARPERZULFAHTEMP40FEMALE40F401:27:51
1783552 [652]HARPERNAZREENITHEKO33FEMALESENFSEN1:27:52
1784553 [652]NO CARD   FEMALESENFSEN1:27:53
1785554 [652]NO RETURN   FEMALESENFSEN1:27:55
1786555 [652]NO CARD   FEMALESENFSEN1:27:56
178769 [71]SHAIKMOGHAMADTEMP13MALEJUNMJUN1:27:57
178870 [71]MYBURGHMOHAMMADTEMP12MALEJUNMJUN1:27:57
178957 [79]BRINKDALENESANLAM FEMALE50F501:27:58
179058 [79]DE SWADRTELSABESANLAM52FEMALE50F501:27:59
179184 [90]BLANK CARD   MALE40M401:27:59
1792374 [404]NO CARD   MALESENMSEN1:28:00
1793556 [652]WILLIAMSNICOLETEMP26FEMALESENFSEN1:28:01
179473 [76]APPOLISLINDSEYTEMP35MALE35M351:28:02
1795557 [652]APPOLISMICHELLETEMP33FEMALESENFSEN1:28:02
1796375 [404]ZHENGWENBOK-WAY VOB28MALESENMSEN1:28:03
179774 [76]RAVENSNATHANK-WAY VOB39MALE35M351:28:04
179843 [47]AJAMAQEELAHTEMP15FEMALEJUNFJUN1:28:06
1799106 [120]BOOYSPHILDATELKOM FEMALE40F401:28:09
180044 [47]EPHRIMCATELYNTEMP16FEMALEJUNFJUN1:28:11
1801558 [652]NO RETURN TEMP FEMALESENFSEN1:28:12
1802376 [404]NO RETURN   MALESENMSEN1:28:19
180336 [40]HARGEYTOFEEQTEMP56MALE55M551:28:20
180459 [79]MAMMONNISATEMP53FEMALE50F501:28:21
180537 [40]SPARKSKEITHSPARTAN56MALE55M551:28:22
1806101 [114]NKASELACHWAYITACENTURY CITY38FEMALE35F351:28:28
180710 [12]HUSSELMANNDAPHNETELKOM65FEMALE65F651:28:31
180860 [79]DU TOITLOUISETEMP50FEMALE50F501:28:32
1809107 [120]BLANK CARD   FEMALE40F401:28:38
1810559 [652]NO RETURN   FEMALESENFSEN1:28:45
181161 [79]PEARCEJOSLYNNANTES51FEMALE50F501:28:49
181237 [55]ANTHONYMYMOENAOMMIEDRAAI55FEMALE55F551:28:49
181359 [73]HENDRICKSKASHIEFOMMIEDRAAI46FEMALE45F451:28:49
181438 [55]CASSIEMRAYGHANAHOMMIEDRAAI56FEMALE55F551:28:50
1815560 [652]NO RETURN   FEMALESENFSEN1:29:05
1816561 [652]NO RETURN   FEMALESENFSEN1:29:08
1817377 [404]NO RETURN   MALESENMSEN1:29:08
1818102 [114]SOLOMONSBADEEAHSPARTAN37FEMALE35F351:29:10
18193 [3]MALLONMIKECELTIC70MALE70M701:29:10
1820562 [652]SIBANGOMANDISAIN TOUCH30FEMALESENFSEN1:29:11
1821563 [652]NO RETURN   FEMALESENFSEN1:29:11
1822564 [652]JACOBSNAWAALAAC FEMALESENFSEN1:29:12
1823108 [120]WEIRLIESLSPARTAN41FEMALE40F401:29:20
182485 [90]WEIRGAVINSPARTAN42MALE40M401:29:23
182560 [73]GEDULDTVALENTASPARTAN46FEMALE45F451:29:25
182686 [90]ALEXANDERGRANTSPARTAN40MALE40M401:29:25
1827565 [652]DIENIETAYBAHTEMP25FEMALESENFSEN1:29:29
1828566 [652]RILEYTRISH-LYNNTEMP26FEMALESENFSEN1:29:32
182961 [73]BEZUIDENHOUTLOUISEK-WAY VOB46FEMALE45F451:29:34
183062 [73]BOURNESUSANK-WAY VOB49FEMALE45F451:29:34
183162 [79]MAJIETSUMAYATEMP FEMALE50F501:29:37
1832567 [652]MEYERNATASHATEMP27FEMALESENFSEN1:29:41
183363 [79]SOLOMONSNADIEMAARD53FEMALE50F501:29:43
183463 [73]CUPIDOKIMSPARTAN45FEMALE45F451:29:43
183564 [79]GARDINERCARISSATEMP51FEMALE50F501:29:49
1836378 [404]KHANKTEMP MALESENMSEN1:29:50
1837568 [652]NO RETURN   FEMALESENFSEN1:29:54
183824 [28] NAZIMARUN WALK 4 LIFE62FEMALE60F601:29:54
1839569 [652]HAMUNYELAROSWITANEDBANK WP32FEMALESENFSEN1:29:56
1840570 [652]LEVENDALCHARMAINETEMP30FEMALESENFSEN1:29:56
184171 [74]MILWARDASACENTRAL AC49MALE45M451:29:59
184272 [74]MOHDJEHANTEMP48MALE45M451:30:07
184364 [73]MOHDMARIANNETEMP47FEMALE45F451:30:08
1844109 [120]BLANK CARD TEMP FEMALE40F401:30:12
184571 [71]JEDAAKRASHARDOMMIEDRAAI17MALEJUNMJUN1:30:22
184687 [90]FOFLONKERMEHBOOBTEMP43MALE40M401:30:26
1847110 [120]FATAARANEEKAHITHEKO44FEMALE40F401:30:26
1848379 [404]PRAGBHAVINATEMP MALESENMSEN1:30:36
1849380 [404]TITUSTAUFEEQUETEMP MALESENMSEN1:30:39
185025 [28]VAN DER MERWEPETROCAPE MULTISPORT62FEMALE60F601:30:44
1851571 [652]CREIGHTONWAFEQAHTEMP34FEMALESENFSEN1:30:46
1852381 [404]CREIGHTONFAGRIETEMP34MALESENMSEN1:30:46
1853382 [404]NO RETURN TEMP MALESENMSEN1:30:48
1854572 [652]NO RETURN TEMP FEMALESENFSEN1:30:50
1855573 [652]WAGNERDEVONTEMP31FEMALESENFSEN1:30:53
1856383 [404]WAGNERNICOLETEMP31MALESENMSEN1:30:53
1857574 [652]BYRNELISATEMP34FEMALESENFSEN1:31:03
1858575 [652]BAINMICHELLETEMP30FEMALESENFSEN1:31:06
1859103 [114]AVESLOUISERUN WALK 4 LIFE35FEMALE35F351:31:09
1860576 [652]DE JAGERANDREABRACKENFELL28FEMALESENFSEN1:31:13
186165 [79]SOLOMONFALDEELAHNANTES54FEMALE50F501:31:14
1862104 [114]ABRAHAMSMAREZAANNANTES37FEMALE35F351:31:15
1863384 [404]HARTNICKASLAMTEMP29MALESENMSEN1:31:15
1864577 [652]HARTNICKAYESHATEMP27FEMALESENFSEN1:31:15
1865578 [652]MARTINWADIAHTEMP34FEMALESENFSEN1:31:22
1866105 [114]MARTINMUNEEBA24.COM37FEMALE35F351:31:22
186766 [79]BAUMANNSONIAUMHLATHUZE AC52FEMALE50F501:31:25
186845 [47]EDWARDSAALIYAHTEMP15FEMALEJUNFJUN1:31:26
186946 [47]ARENDSEAQEELAHTEMP16FEMALEJUNFJUN1:31:27
187064 [68]MCKENZIE TEMP MALE50M501:31:27
1871579 [652]CHIEDZAKALLITITEMP28FEMALESENFSEN1:31:28
1872580 [652]AVENANTLIZATEMP26FEMALESENFSEN1:31:28
1873581 [652]NO CARD TEMP FEMALESENFSEN1:31:30
1874582 [652]MTSHEMLAHLONELWARCS GUGS31FEMALESENFSEN1:31:33
1875111 [120]RHODESAQEELAHTEMP FEMALE40F401:31:40
187665 [73]WELGEMOEDTANIASTRAND45FEMALE45F451:31:44
187711 [12]ROSSOUWCARONTEMP69FEMALE65F651:31:44
187867 [79]SAMODIENAARD FEMALE50F501:32:00
187939 [55]ASMALZOMMIEDRAAI55FEMALE55F551:32:00
1880583 [652]NO CARD TEMP FEMALESENFSEN1:32:11
1881584 [652]BRANDMICHELLEBRACKENFELL32FEMALESENFSEN1:32:15
188268 [79] RABIATEMP50FEMALE50F501:32:18
1883106 [114]AJAMRASHIDATEMP35FEMALE35F351:32:18
1884585 [652]BOTHACARLABRACKENFELL30FEMALESENFSEN1:32:18
188566 [73] NERINATEMP49FEMALE45F451:32:30
1886385 [404]DOUTIEISMA-EELOMMIEDRAAI26MALESENMSEN1:32:31
1887586 [652]NO RETURN AAC FEMALESENFSEN1:32:35
1888587 [652]RAMSURANSAMANTHATEMP33FEMALESENFSEN1:32:38
1889588 [652]NO RETURN   FEMALESENFSEN1:32:38
1890386 [404]NO CARD TEMP MALESENMSEN1:32:39
189173 [74]ISMAILCARRIEMWALMERS AC49MALE45M451:32:47
189274 [74]AKOOJEEIGHSAANITHEKO45MALE45M451:32:47
1893589 [652]NO CARD   FEMALESENFSEN1:32:49
1894590 [652]MARUPINGWENDYIN TOUCH FEMALESENFSEN1:32:49
1895387 [404]MAHLASELABULELANITEMP MALESENMSEN1:32:50
1896112 [120]ABRAHAMCHARMAINETOP FORM FEMALE40F401:32:55
1897113 [120]FOURIESANETTETEMP44FEMALE40F401:32:56
189840 [55]TRUEBODYADELAIDEITHEKO56FEMALE55F551:33:04
1899591 [652]CROCKERCANDICETEMP29FEMALESENFSEN1:33:05
1900592 [652]SCHOUTENMEGANK-WAY VOB27FEMALESENFSEN1:33:06
1901593 [652]FOULDSCAREY-ANNECARBINEERS WP34FEMALESENFSEN1:33:06
190241 [55]MARCHANTBEVERLEYTEMP55FEMALE55F551:33:12
190342 [55]DANIELSCOLLEENSPARTAN57FEMALE55F551:33:17
190469 [79]MALOONZANAPKENFAC52FEMALE50F501:33:18
1905388 [404]NO RETURN TEMP MALESENMSEN1:33:21
1906114 [120]FERRISNAJMUNISATEMP44FEMALE40F401:33:29
190738 [40]NELKOBUSSANLAM56MALE55M551:33:31
190843 [55]CLAASSENANNETJIESANLAM59FEMALE55F551:33:32
190921 [25]BEUKESWYNANDSANLAM62MALE60M601:33:32
1910594 [652]NO RETURN NANTES FEMALESENFSEN1:33:40
1911595 [652]NO CARD TEMP FEMALESENFSEN1:33:41
1912596 [652]APROSKIEJACKIETEMP FEMALESENFSEN1:33:45
1913389 [404]BESTMICHAELTEMP27MALESENMSEN1:33:48
1914107 [114]NARKERAYSHAARD38FEMALE35F351:33:51
1915108 [114]ARENDSELIEZELPINELANDS38FEMALE35F351:33:51
1916115 [120]ARONDSEFAIROUZTEMP42FEMALE40F401:33:59
1917390 [404]ZERFARTHURSANLAM30MALESENMSEN1:34:02
1918391 [404]OSBORNEJONATHANTEMP30MALESENMSEN1:34:03
1919392 [404]NO CARD TEMP MALESENMSEN1:34:04
192012 [12]COETZEECATHARINABELLVILLE65FEMALE65F651:34:06
1921597 [652]NO RETURN TEMP FEMALESENFSEN1:34:18
1922598 [652]ISMAILAASIYAHTEMP25FEMALESENFSEN1:34:18
1923599 [652]NO RETURN TEMP FEMALESENFSEN1:34:19
192475 [76]PETERSENMARKSPARTAN36MALE35M351:34:21
1925600 [652]NO RETURN OMMIEDRAAI FEMALESENFSEN1:34:27
1926601 [652]JOHNSTON-PRICEGILLIANTEMP27FEMALESENFSEN1:34:38
1927393 [404]TOLKERIMTIAZWALMERS AC34MALESENMSEN1:34:51
192839 [40]COETZEELAVERNENANTES55MALE55M551:34:51
1929602 [652]NO RETURN TEMP FEMALESENFSEN1:35:00
1930603 [652]NO RETURN TEMP FEMALESENFSEN1:35:00
1931604 [652]SADIENANISAHTEMP34FEMALESENFSEN1:35:05
193288 [90]SADIENEESATEMP40MALE40M401:35:05
193367 [73]SADIENRAGIMAHTEMP47FEMALE45F451:35:07
193444 [55]LODEWYKDAPHNEMP TITANS59FEMALE55F551:35:13
193568 [73]ISAACSRUWAYDAHOMMIEDRAAI48FEMALE45F451:35:15
193665 [68]SADIENATEMP MALE50M501:35:19
193769 [73]CAIRNCROSSBRONWINWEST COAST45FEMALE45F451:36:14
1938605 [652]NO RETURN TEMP FEMALESENFSEN1:36:15
1939606 [652]NO RETURN   FEMALESENFSEN1:36:18
194047 [47]MOSOLAROSNATEMP18FEMALEJUNFJUN1:36:18
1941607 [652]BUTINOMMISELOTEMP29FEMALESENFSEN1:36:22
1942608 [652]SIVENI TEMP24FEMALESENFSEN1:36:22
1943394 [404]SAMEER TEMP29MALESENMSEN1:36:22
1944609 [652]NO CARD TEMP FEMALESENFSEN1:36:35
194566 [68]MATOSETAMMYPINELANDS50MALE50M501:36:40
194626 [28]SINEHFATIMATEMP62FEMALE60F601:36:45
194722 [25]SINGHROHITHTEMP60MALE60M601:36:46
1948610 [652]JAMODIENIMHALTEMP34FEMALESENFSEN1:37:06
1949611 [652]NO CARD TEMP FEMALESENFSEN1:37:07
1950395 [404]NO CARD TEMP MALESENMSEN1:37:07
195146 [55]GYSSENBERGFELICITYMP TITANS55FEMALE55F551:37:20
195247 [55]SLABBERTLYNETTESOUTH STRIDERS57FEMALE55F551:37:38
195323 [25]SLABBERTANDRESOUTH STRIDERS61MALE60M601:37:38
195489 [90]HOBOWUWANAMZIMKHULURCS GUGS44MALE40M401:37:43
1955116 [120]DAVASSALOMETEMP44FEMALE40F401:37:45
1956396 [404]NO RETURN TEMP MALESENMSEN1:37:45
195770 [79]MATHEWSGADIJATEMP53FEMALE50F501:37:55
195871 [79]PEYTONSHARONTEMP50FEMALE50F501:38:01
195970 [73]CUPIDOMICHELLEPINELANDS47FEMALE45F451:38:08
196024 [25]LAMBCEDRICPINELANDS62MALE60M601:38:08
196172 [79]HUYSAMENLYDIASANLAM52FEMALE50F501:38:09
1962612 [652]NO CARD TEMP FEMALESENFSEN1:38:13
1963613 [652]NO CARD TEMP FEMALESENFSEN1:38:33
1964614 [652]NO CARD TEMP FEMALESENFSEN1:38:36
1965615 [652]NO RETURN TEMP FEMALESENFSEN1:38:41
1966397 [404]NO RETURN TEMP MALESENMSEN1:38:42
196773 [79]BUYSANNELIZEK-WAY VOB50FEMALE50F501:38:51
1968616 [652]NO CARD TEMP FEMALESENFSEN1:38:53
1969617 [652]NO CARD TEMP FEMALESENFSEN1:39:00
1970117 [120]BLANK CARD TEMP FEMALE40F401:39:02
197171 [73]CALVERTZORINATELKOM49FEMALE45F451:39:05
197272 [73]CHARLESTOGEYDATELKOM49FEMALE45F451:39:06
1973618 [652]DWAKAZAYAMKELADRDLR FEMALESENFSEN1:39:14
1974619 [652]DILIZANDILEKADRDLR FEMALESENFSEN1:39:15
197574 [79]RAJAGOPAULSALLYTEMP52FEMALE50F501:39:17
197627 [28]PETERSENMARTHATEMP63FEMALE60F601:39:24
1977620 [652]JOSEPHFAZLINTEMP34FEMALESENFSEN1:39:38
1978621 [652]NO CARD TEMP FEMALESENFSEN1:40:00
1979622 [652]GOUWSWILNABRACKENFELL34FEMALESENFSEN1:40:02
198048 [55]VIGUSDENISERUN WALK 4 LIFE58FEMALE55F551:40:46
1981109 [114]PLATTVIOLATEMP36FEMALE35F351:40:48
1982110 [114]SLEMMINGWASIEMAITHEKO35FEMALE35F351:40:49
1983623 [652]NO RETURN TEMP FEMALESENFSEN1:41:21
1984624 [652]NO RETURN TEMP FEMALESENFSEN1:41:40
1985625 [652]NO RETURN TEMP FEMALESENFSEN1:41:52
1986398 [404]NO RETURN TEMP MALESENMSEN1:42:20
1987626 [652]BLANK CARD TEMP FEMALESENFSEN1:42:21
1988627 [652]NO CARD TEMP FEMALESENFSEN1:42:22
1989628 [652]NO CARD TEMP FEMALESENFSEN1:42:22
199075 [79]ADAMSSHAMILLAKENFAC54FEMALE50F501:42:38
1991629 [652]NO RETURN TEMP FEMALESENFSEN1:42:50
199249 [55]KARJIKERSHAMIM BEGUMTOP FORM56FEMALE55F551:42:50
1993111 [114]KARJIKERFAIZANATOP FORM36FEMALE35F351:42:51
199450 [55]PARKERSAEEDANANTES58FEMALE55F551:42:58
1995630 [652]PARKERRAABEAHNANTES33FEMALESENFSEN1:42:59
199676 [79]MCBANJUDITHNANTES54FEMALE50F501:43:00
1997112 [114]ARENDSENIKKINANTES36FEMALE35F351:43:01
1998113 [114]ALLIEMARIAMNANTES38FEMALE35F351:43:02
19994 [4]DAKERSARTHURHELDERBERG79MALE75M751:43:04
2000631 [652]MOHAMEDFATIMANANTES34FEMALESENFSEN1:43:05
2001632 [652]ROHMANREEZANANANTES33FEMALESENFSEN1:43:06
2002633 [652]NO CARD NANTES FEMALESENFSEN1:43:07
200377 [79]SATACKFAHMIEDANANTES FEMALE50F501:43:07
2004634 [652]ALLIEMALEEGAHNANTES32FEMALESENFSEN1:43:08
2005635 [652]PARKERMARIAMNANTES30FEMALESENFSEN1:43:09
2006636 [652]ALLIERAFIEKNANTES32FEMALESENFSEN1:43:10
200740 [40]TRUEBODYAMORETTNANTES58MALE55M551:43:11
2008637 [652]OBERHOLSTERTASMYNBORN 2 RUN31FEMALESENFSEN1:43:16
2009638 [652]JONESAYNSLEYBELLVILLE33FEMALESENFSEN1:43:17
201051 [55]TESSELAARMERYLTEMP59FEMALE55F551:43:23
2011399 [404]JAWOODIENDAWOODTEMP33MALESENMSEN1:43:29
2012639 [652]WILLIAMSMICHELLETEMP32FEMALESENFSEN1:43:42
2013640 [652]NO RETURN TEMP FEMALESENFSEN1:43:43
2014641 [652]NO RETURN TEMP FEMALESENFSEN1:43:43
201552 [55]KAMISHSHAMIELANANTES57FEMALE55F551:44:13
201676 [76]KAMISHIGSHAANNANTES38MALE35M351:44:14
2017400 [404]NO RETURN TEMP MALESENMSEN1:45:51
2018401 [404]NO RETURN TEMP MALESENMSEN1:45:52
2019114 [114]KHONZANIMILISWATEMP37FEMALE35F351:46:13
202073 [73]GROBBELAARGILLIANRUN WALK 4 LIFE46FEMALE45F451:46:38
2021402 [404]ISSACGREGTEMP25MALESENMSEN1:47:18
2022403 [404]NO CARD TEMP MALESENMSEN1:48:03
2023642 [652]NO CARD TEMP FEMALESENFSEN1:48:03
2024643 [652]NO CARD TEMP FEMALESENFSEN1:48:38
2025644 [652]NO RETURN   FEMALESENFSEN1:48:41
2026404 [404]NO RETURN TEMP MALESENMSEN1:48:42
2027645 [652]NO RETURN TEMP FEMALESENFSEN1:48:45
2028118 [120]FRANCISBARANEEZTEMP FEMALE40F401:48:45
202967 [68]HUYSAMENDIRKSANLAM MALE50M501:48:39
2030646 [652]NO RETURN TEMP FEMALESENFSEN1:49:49
203178 [79]ABRAHAMSRUWAYDATEMP50FEMALE50F501:49:50
2032647 [652]NO RETURN TEMP FEMALESENFSEN1:50:05
203379 [79]ERASMUSINARUN WALK 4 LIFE52FEMALE50F501:50:37
203453 [55]UYSINATEMP58FEMALE55F551:50:37
2035648 [652]NO CARD TEMP FEMALESENFSEN1:50:38
2036649 [652]MAJIETMARDEYAHITHEKO27FEMALESENFSEN1:50:41
2037650 [652]NO RETURN TEMP FEMALESENFSEN1:51:30
203828 [28]JACOBSDTEMP60FEMALE60F601:53:05
203968 [68]BESTERSHAMEEGHTEMP51MALE50M501:55:57
204090 [90]FAKIERMANSOERARD43MALE40M401:55:57
2041119 [120]BLANK CARD   FEMALE40F401:55:57
2042651 [652]NO CARD FISH HOEK FEMALESENFSEN1:56:03
204354 [55]JENNINGSGLYNISTEMP58FEMALE55F551:56:32
2044652 [652]DE VRIESFLORENCESANLAM32FEMALESENFSEN1:58:04
2045120 [120]MARCUSTASNEEMTOP FORM41FEMALE40F401:59:22
204655 [55]VISSERSANDRAHANGKLIP49FEMALE55F552:03:17
204725 [25]VISSERKLAASHANGKLIP60MALE60M602:03:18